<?xml version="1.0" encoding="UTF-8" standalone="no" ?>
<gpx xmlns="http://www.topografix.com/GPX/1/1" creator="www.plotaroute.com" version="1.1"  xmlns:xsi="http://www.w3.org/2001/XMLSchema-instance" xsi:schemaLocation="http://www.topografix.com/GPX/1/1 http://www.topografix.com/GPX/1/1/gpx.xsd">
<metadata>
<desc>Route created on plotaroute.com</desc>
</metadata>
<trk>
<name>09Jun21-RLE-Shrewley</name>
<trkseg>
<trkpt lat="52.367346" lon="-1.837013">
<ele>143</ele>
<time>2021-06-03T00:00:00Z</time></trkpt>
<trkpt lat="52.366904" lon="-1.84119">
<ele>149</ele>
<time>2021-06-03T00:00:57Z</time></trkpt>
<trkpt lat="52.367084" lon="-1.844586">
<ele>149</ele>
<time>2021-06-03T00:01:32Z</time></trkpt>
<trkpt lat="52.367327" lon="-1.846579">
<ele>149</ele>
<time>2021-06-03T00:01:54Z</time></trkpt>
<trkpt lat="52.367274" lon="-1.851661">
<ele>158</ele>
<time>2021-06-03T00:03:08Z</time></trkpt>
<trkpt lat="52.367355" lon="-1.851941">
<ele>159</ele>
<time>2021-06-03T00:03:13Z</time></trkpt>
<trkpt lat="52.369824" lon="-1.855563">
<ele>156</ele>
<time>2021-06-03T00:04:08Z</time></trkpt>
<trkpt lat="52.368503" lon="-1.858527">
<ele>153</ele>
<time>2021-06-03T00:04:41Z</time></trkpt>
<trkpt lat="52.3662" lon="-1.864743">
<ele>160</ele>
<time>2021-06-03T00:06:09Z</time></trkpt>
<trkpt lat="52.365422" lon="-1.866531">
<ele>160</ele>
<time>2021-06-03T00:06:33Z</time></trkpt>
<trkpt lat="52.364934" lon="-1.867308">
<ele>161</ele>
<time>2021-06-03T00:06:45Z</time></trkpt>
<trkpt lat="52.363714" lon="-1.86884">
<ele>161</ele>
<time>2021-06-03T00:07:11Z</time></trkpt>
<trkpt lat="52.362799" lon="-1.870338">
<ele>161</ele>
<time>2021-06-03T00:07:31Z</time></trkpt>
<trkpt lat="52.362302" lon="-1.870793">
<ele>162</ele>
<time>2021-06-03T00:07:43Z</time></trkpt>
<trkpt lat="52.362069" lon="-1.870859">
<ele>163</ele>
<time>2021-06-03T00:07:49Z</time></trkpt>
<trkpt lat="52.361721" lon="-1.87082">
<ele>165</ele>
<time>2021-06-03T00:07:58Z</time></trkpt>
<trkpt lat="52.360277" lon="-1.869896">
<ele>165</ele>
<time>2021-06-03T00:08:24Z</time></trkpt>
<trkpt lat="52.356576" lon="-1.867237">
<ele>162</ele>
<time>2021-06-03T00:09:29Z</time></trkpt>
<trkpt lat="52.355967" lon="-1.866891">
<ele>161</ele>
<time>2021-06-03T00:09:39Z</time></trkpt>
<trkpt lat="52.354881" lon="-1.865718">
<ele>160</ele>
<time>2021-06-03T00:09:58Z</time></trkpt>
<trkpt lat="52.352318" lon="-1.861813">
<ele>158</ele>
<time>2021-06-03T00:11:00Z</time></trkpt>
<trkpt lat="52.352089" lon="-1.861073">
<ele>160</ele>
<time>2021-06-03T00:11:10Z</time></trkpt>
<trkpt lat="52.35209" lon="-1.859009">
<ele>157</ele>
<time>2021-06-03T00:11:28Z</time></trkpt>
<trkpt lat="52.351818" lon="-1.857829">
<ele>156</ele>
<time>2021-06-03T00:11:39Z</time></trkpt>
<trkpt lat="52.351498" lon="-1.857168">
<ele>157</ele>
<time>2021-06-03T00:11:48Z</time></trkpt>
<trkpt lat="52.350467" lon="-1.855874">
<ele>159</ele>
<time>2021-06-03T00:12:16Z</time></trkpt>
<trkpt lat="52.34894" lon="-1.852688">
<ele>158</ele>
<time>2021-06-03T00:12:54Z</time></trkpt>
<trkpt lat="52.348239" lon="-1.851521">
<ele>156</ele>
<time>2021-06-03T00:13:08Z</time></trkpt>
<trkpt lat="52.346682" lon="-1.850509">
<ele>152</ele>
<time>2021-06-03T00:13:29Z</time></trkpt>
<trkpt lat="52.346276" lon="-1.85005">
<ele>150</ele>
<time>2021-06-03T00:13:35Z</time></trkpt>
<trkpt lat="52.345739" lon="-1.849138">
<ele>148</ele>
<time>2021-06-03T00:13:43Z</time></trkpt>
<trkpt lat="52.344658" lon="-1.848102">
<ele>147</ele>
<time>2021-06-03T00:14:05Z</time></trkpt>
<trkpt lat="52.343701" lon="-1.847505">
<ele>152</ele>
<time>2021-06-03T00:14:31Z</time></trkpt>
<trkpt lat="52.342012" lon="-1.84668">
<ele>157</ele>
<time>2021-06-03T00:15:13Z</time></trkpt>
<trkpt lat="52.341638" lon="-1.84655">
<ele>157</ele>
<time>2021-06-03T00:15:21Z</time></trkpt>
<trkpt lat="52.34111" lon="-1.84742">
<ele>159</ele>
<time>2021-06-03T00:15:36Z</time></trkpt>
<trkpt lat="52.340307" lon="-1.848329">
<ele>161</ele>
<time>2021-06-03T00:15:53Z</time></trkpt>
<trkpt lat="52.340042" lon="-1.84812">
<ele>160</ele>
<time>2021-06-03T00:15:57Z</time></trkpt>
<trkpt lat="52.339817" lon="-1.847365">
<ele>158</ele>
<time>2021-06-03T00:16:05Z</time></trkpt>
<trkpt lat="52.338941" lon="-1.845661">
<ele>157</ele>
<time>2021-06-03T00:16:27Z</time></trkpt>
<trkpt lat="52.337999" lon="-1.843441">
<ele>150</ele>
<time>2021-06-03T00:16:41Z</time></trkpt>
<trkpt lat="52.337216" lon="-1.840272">
<ele>133</ele>
<time>2021-06-03T00:16:56Z</time></trkpt>
<trkpt lat="52.3367" lon="-1.839881">
<ele>135</ele>
<time>2021-06-03T00:17:12Z</time></trkpt>
<trkpt lat="52.33551" lon="-1.838573">
<ele>151</ele>
<time>2021-06-03T00:18:10Z</time></trkpt>
<trkpt lat="52.335007" lon="-1.838318">
<ele>154</ele>
<time>2021-06-03T00:18:28Z</time></trkpt>
<trkpt lat="52.334389" lon="-1.837325">
<ele>158</ele>
<time>2021-06-03T00:18:51Z</time></trkpt>
<trkpt lat="52.334104" lon="-1.837237">
<ele>159</ele>
<time>2021-06-03T00:18:57Z</time></trkpt>
<trkpt lat="52.333235" lon="-1.837373">
<ele>158</ele>
<time>2021-06-03T00:19:13Z</time></trkpt>
<trkpt lat="52.332776" lon="-1.837026">
<ele>157</ele>
<time>2021-06-03T00:19:20Z</time></trkpt>
<trkpt lat="52.332411" lon="-1.835383">
<ele>158</ele>
<time>2021-06-03T00:19:37Z</time></trkpt>
<trkpt lat="52.332013" lon="-1.834453">
<ele>157</ele>
<time>2021-06-03T00:19:48Z</time></trkpt>
<trkpt lat="52.331783" lon="-1.833544">
<ele>152</ele>
<time>2021-06-03T00:19:50Z</time></trkpt>
<trkpt lat="52.331591" lon="-1.83259">
<ele>144</ele>
<time>2021-06-03T00:19:50Z</time></trkpt>
<trkpt lat="52.331468" lon="-1.830836">
<ele>134</ele>
<time>2021-06-03T00:19:55Z</time></trkpt>
<trkpt lat="52.331364" lon="-1.830643">
<ele>133</ele>
<time>2021-06-03T00:19:56Z</time></trkpt>
<trkpt lat="52.33066" lon="-1.830163">
<ele>131</ele>
<time>2021-06-03T00:20:02Z</time></trkpt>
<trkpt lat="52.330228" lon="-1.829569">
<ele>127</ele>
<time>2021-06-03T00:20:08Z</time></trkpt>
<trkpt lat="52.329274" lon="-1.828522">
<ele>123</ele>
<time>2021-06-03T00:20:22Z</time></trkpt>
<trkpt lat="52.329138" lon="-1.828189">
<ele>123</ele>
<time>2021-06-03T00:20:26Z</time></trkpt>
<trkpt lat="52.329201" lon="-1.827235">
<ele>124</ele>
<time>2021-06-03T00:20:37Z</time></trkpt>
<trkpt lat="52.32915" lon="-1.826991">
<ele>124</ele>
<time>2021-06-03T00:20:42Z</time></trkpt>
<trkpt lat="52.32905" lon="-1.826768">
<ele>125</ele>
<time>2021-06-03T00:20:46Z</time></trkpt>
<trkpt lat="52.328263" lon="-1.825876">
<ele>130</ele>
<time>2021-06-03T00:21:10Z</time></trkpt>
<trkpt lat="52.327555" lon="-1.82457">
<ele>131</ele>
<time>2021-06-03T00:21:31Z</time></trkpt>
<trkpt lat="52.32728" lon="-1.824187">
<ele>131</ele>
<time>2021-06-03T00:21:37Z</time></trkpt>
<trkpt lat="52.326114" lon="-1.823018">
<ele>128</ele>
<time>2021-06-03T00:21:55Z</time></trkpt>
<trkpt lat="52.325486" lon="-1.822224">
<ele>124</ele>
<time>2021-06-03T00:22:03Z</time></trkpt>
<trkpt lat="52.325124" lon="-1.821904">
<ele>123</ele>
<time>2021-06-03T00:22:08Z</time></trkpt>
<trkpt lat="52.323561" lon="-1.821004">
<ele>122</ele>
<time>2021-06-03T00:22:33Z</time></trkpt>
<trkpt lat="52.323149" lon="-1.820599">
<ele>120</ele>
<time>2021-06-03T00:22:39Z</time></trkpt>
<trkpt lat="52.322539" lon="-1.819817">
<ele>119</ele>
<time>2021-06-03T00:22:48Z</time></trkpt>
<trkpt lat="52.321907" lon="-1.818615">
<ele>115</ele>
<time>2021-06-03T00:22:59Z</time></trkpt>
<trkpt lat="52.32149" lon="-1.818251">
<ele>113</ele>
<time>2021-06-03T00:23:05Z</time></trkpt>
<trkpt lat="52.321284" lon="-1.818174">
<ele>112</ele>
<time>2021-06-03T00:23:07Z</time></trkpt>
<trkpt lat="52.320512" lon="-1.818166">
<ele>110</ele>
<time>2021-06-03T00:23:16Z</time></trkpt>
<trkpt lat="52.320314" lon="-1.818061">
<ele>110</ele>
<time>2021-06-03T00:23:19Z</time></trkpt>
<trkpt lat="52.320048" lon="-1.817737">
<ele>109</ele>
<time>2021-06-03T00:23:24Z</time></trkpt>
<trkpt lat="52.319863" lon="-1.817278">
<ele>108</ele>
<time>2021-06-03T00:23:29Z</time></trkpt>
<trkpt lat="52.319682" lon="-1.817301">
<ele>109</ele>
<time>2021-06-03T00:23:32Z</time></trkpt>
<trkpt lat="52.319144" lon="-1.817137">
<ele>110</ele>
<time>2021-06-03T00:23:42Z</time></trkpt>
<trkpt lat="52.318515" lon="-1.816802">
<ele>111</ele>
<time>2021-06-03T00:23:55Z</time></trkpt>
<trkpt lat="52.317855" lon="-1.816253">
<ele>111</ele>
<time>2021-06-03T00:24:11Z</time></trkpt>
<trkpt lat="52.317199" lon="-1.815478">
<ele>113</ele>
<time>2021-06-03T00:24:28Z</time></trkpt>
<trkpt lat="52.316889" lon="-1.815233">
<ele>115</ele>
<time>2021-06-03T00:24:36Z</time></trkpt>
<trkpt lat="52.316053" lon="-1.814975">
<ele>117</ele>
<time>2021-06-03T00:24:57Z</time></trkpt>
<trkpt lat="52.314379" lon="-1.814677">
<ele>121</ele>
<time>2021-06-03T00:25:35Z</time></trkpt>
<trkpt lat="52.312795" lon="-1.814799">
<ele>119</ele>
<time>2021-06-03T00:25:59Z</time></trkpt>
<trkpt lat="52.311245" lon="-1.816221">
<ele>123</ele>
<time>2021-06-03T00:26:38Z</time></trkpt>
<trkpt lat="52.311057" lon="-1.816953">
<ele>126</ele>
<time>2021-06-03T00:26:52Z</time></trkpt>
<trkpt lat="52.311059" lon="-1.817342">
<ele>127</ele>
<time>2021-06-03T00:26:59Z</time></trkpt>
<trkpt lat="52.311493" lon="-1.820771">
<ele>132</ele>
<time>2021-06-03T00:27:47Z</time></trkpt>
<trkpt lat="52.311504" lon="-1.821438">
<ele>132</ele>
<time>2021-06-03T00:27:53Z</time></trkpt>
<trkpt lat="52.310911" lon="-1.821419">
<ele>129</ele>
<time>2021-06-03T00:28:00Z</time></trkpt>
<trkpt lat="52.310159" lon="-1.821095">
<ele>127</ele>
<time>2021-06-03T00:28:09Z</time></trkpt>
<trkpt lat="52.308304" lon="-1.820999">
<ele>120</ele>
<time>2021-06-03T00:28:30Z</time></trkpt>
<trkpt lat="52.307905" lon="-1.820901">
<ele>118</ele>
<time>2021-06-03T00:28:34Z</time></trkpt>
<trkpt lat="52.307599" lon="-1.820717">
<ele>117</ele>
<time>2021-06-03T00:28:38Z</time></trkpt>
<trkpt lat="52.306464" lon="-1.819513">
<ele>112</ele>
<time>2021-06-03T00:28:52Z</time></trkpt>
<trkpt lat="52.306269" lon="-1.819445">
<ele>112</ele>
<time>2021-06-03T00:28:55Z</time></trkpt>
<trkpt lat="52.304095" lon="-1.821701">
<ele>108</ele>
<time>2021-06-03T00:29:31Z</time></trkpt>
<trkpt lat="52.303444" lon="-1.822044">
<ele>106</ele>
<time>2021-06-03T00:29:40Z</time></trkpt>
<trkpt lat="52.303151" lon="-1.821881">
<ele>105</ele>
<time>2021-06-03T00:29:45Z</time></trkpt>
<trkpt lat="52.303011" lon="-1.823002">
<ele>107</ele>
<time>2021-06-03T00:29:58Z</time></trkpt>
<trkpt lat="52.303038" lon="-1.823756">
<ele>109</ele>
<time>2021-06-03T00:30:10Z</time></trkpt>
<trkpt lat="52.303209" lon="-1.824766">
<ele>111</ele>
<time>2021-06-03T00:30:26Z</time></trkpt>
<trkpt lat="52.303062" lon="-1.825415">
<ele>111</ele>
<time>2021-06-03T00:30:32Z</time></trkpt>
<trkpt lat="52.302489" lon="-1.825754">
<ele>110</ele>
<time>2021-06-03T00:30:41Z</time></trkpt>
<trkpt lat="52.301801" lon="-1.825905">
<ele>108</ele>
<time>2021-06-03T00:30:51Z</time></trkpt>
<trkpt lat="52.300958" lon="-1.826272">
<ele>108</ele>
<time>2021-06-03T00:31:04Z</time></trkpt>
<trkpt lat="52.300364" lon="-1.826847">
<ele>108</ele>
<time>2021-06-03T00:31:15Z</time></trkpt>
<trkpt lat="52.300156" lon="-1.827334">
<ele>107</ele>
<time>2021-06-03T00:31:21Z</time></trkpt>
<trkpt lat="52.300037" lon="-1.828527">
<ele>111</ele>
<time>2021-06-03T00:31:34Z</time></trkpt>
<trkpt lat="52.299502" lon="-1.829815">
<ele>109</ele>
<time>2021-06-03T00:31:51Z</time></trkpt>
<trkpt lat="52.299186" lon="-1.830259">
<ele>106</ele>
<time>2021-06-03T00:31:55Z</time></trkpt>
<trkpt lat="52.298364" lon="-1.828543">
<ele>101</ele>
<time>2021-06-03T00:32:10Z</time></trkpt>
<trkpt lat="52.29776" lon="-1.827924">
<ele>101</ele>
<time>2021-06-03T00:32:20Z</time></trkpt>
<trkpt lat="52.297305" lon="-1.827726">
<ele>101</ele>
<time>2021-06-03T00:32:26Z</time></trkpt>
<trkpt lat="52.296911" lon="-1.827695">
<ele>100</ele>
<time>2021-06-03T00:32:32Z</time></trkpt>
<trkpt lat="52.294587" lon="-1.827844">
<ele>100</ele>
<time>2021-06-03T00:33:10Z</time></trkpt>
<trkpt lat="52.293947" lon="-1.827544">
<ele>100</ele>
<time>2021-06-03T00:33:21Z</time></trkpt>
<trkpt lat="52.293186" lon="-1.826618">
<ele>99</ele>
<time>2021-06-03T00:33:35Z</time></trkpt>
<trkpt lat="52.292866" lon="-1.825762">
<ele>98</ele>
<time>2021-06-03T00:33:43Z</time></trkpt>
<trkpt lat="52.29231" lon="-1.823753">
<ele>94</ele>
<time>2021-06-03T00:34:01Z</time></trkpt>
<trkpt lat="52.29152" lon="-1.824152">
<ele>96</ele>
<time>2021-06-03T00:34:18Z</time></trkpt>
<trkpt lat="52.290024" lon="-1.827729">
<ele>102</ele>
<time>2021-06-03T00:35:12Z</time></trkpt>
<trkpt lat="52.289823" lon="-1.827928">
<ele>102</ele>
<time>2021-06-03T00:35:16Z</time></trkpt>
<trkpt lat="52.289688" lon="-1.827947">
<ele>102</ele>
<time>2021-06-03T00:35:18Z</time></trkpt>
<trkpt lat="52.288598" lon="-1.827305">
<ele>98</ele>
<time>2021-06-03T00:35:35Z</time></trkpt>
<trkpt lat="52.288322" lon="-1.827628">
<ele>98</ele>
<time>2021-06-03T00:35:40Z</time></trkpt>
<trkpt lat="52.287649" lon="-1.827804">
<ele>99</ele>
<time>2021-06-03T00:35:51Z</time></trkpt>
<trkpt lat="52.287238" lon="-1.828218">
<ele>99</ele>
<time>2021-06-03T00:35:59Z</time></trkpt>
<trkpt lat="52.286941" lon="-1.828385">
<ele>99</ele>
<time>2021-06-03T00:36:05Z</time></trkpt>
<trkpt lat="52.285696" lon="-1.828393">
<ele>100</ele>
<time>2021-06-03T00:36:28Z</time></trkpt>
<trkpt lat="52.285497" lon="-1.828644">
<ele>100</ele>
<time>2021-06-03T00:36:32Z</time></trkpt>
<trkpt lat="52.284741" lon="-1.830754">
<ele>100</ele>
<time>2021-06-03T00:36:56Z</time></trkpt>
<trkpt lat="52.2846" lon="-1.830837">
<ele>100</ele>
<time>2021-06-03T00:36:59Z</time></trkpt>
<trkpt lat="52.284076" lon="-1.830404">
<ele>101</ele>
<time>2021-06-03T00:37:08Z</time></trkpt>
<trkpt lat="52.283895" lon="-1.830361">
<ele>101</ele>
<time>2021-06-03T00:37:11Z</time></trkpt>
<trkpt lat="52.28352" lon="-1.83085">
<ele>99</ele>
<time>2021-06-03T00:37:19Z</time></trkpt>
<trkpt lat="52.282553" lon="-1.828481">
<ele>100</ele>
<time>2021-06-03T00:37:45Z</time></trkpt>
<trkpt lat="52.281958" lon="-1.825268">
<ele>95</ele>
<time>2021-06-03T00:38:13Z</time></trkpt>
<trkpt lat="52.281234" lon="-1.823094">
<ele>98</ele>
<time>2021-06-03T00:38:46Z</time></trkpt>
<trkpt lat="52.280842" lon="-1.822239">
<ele>98</ele>
<time>2021-06-03T00:38:59Z</time></trkpt>
<trkpt lat="52.280249" lon="-1.82179">
<ele>100</ele>
<time>2021-06-03T00:39:12Z</time></trkpt>
<trkpt lat="52.279604" lon="-1.820725">
<ele>100</ele>
<time>2021-06-03T00:39:26Z</time></trkpt>
<trkpt lat="52.278111" lon="-1.817309">
<ele>94</ele>
<time>2021-06-03T00:39:59Z</time></trkpt>
<trkpt lat="52.277367" lon="-1.816165">
<ele>94</ele>
<time>2021-06-03T00:40:17Z</time></trkpt>
<trkpt lat="52.276581" lon="-1.815441">
<ele>96</ele>
<time>2021-06-03T00:40:36Z</time></trkpt>
<trkpt lat="52.276065" lon="-1.814699">
<ele>99</ele>
<time>2021-06-03T00:40:55Z</time></trkpt>
<trkpt lat="52.274926" lon="-1.813443">
<ele>101</ele>
<time>2021-06-03T00:41:23Z</time></trkpt>
<trkpt lat="52.274325" lon="-1.813093">
<ele>100</ele>
<time>2021-06-03T00:41:32Z</time></trkpt>
<trkpt lat="52.273704" lon="-1.811918">
<ele>99</ele>
<time>2021-06-03T00:41:46Z</time></trkpt>
<trkpt lat="52.273262" lon="-1.811531">
<ele>96</ele>
<time>2021-06-03T00:41:52Z</time></trkpt>
<trkpt lat="52.27147" lon="-1.809113">
<ele>92</ele>
<time>2021-06-03T00:42:21Z</time></trkpt>
<trkpt lat="52.271344" lon="-1.809111">
<ele>92</ele>
<time>2021-06-03T00:42:23Z</time></trkpt>
<trkpt lat="52.270813" lon="-1.809698">
<ele>87</ele>
<time>2021-06-03T00:42:29Z</time></trkpt>
<trkpt lat="52.270094" lon="-1.810893">
<ele>85</ele>
<time>2021-06-03T00:42:39Z</time></trkpt>
<trkpt lat="52.269109" lon="-1.811614">
<ele>82</ele>
<time>2021-06-03T00:42:55Z</time></trkpt>
<trkpt lat="52.268839" lon="-1.811975">
<ele>82</ele>
<time>2021-06-03T00:43:02Z</time></trkpt>
<trkpt lat="52.268199" lon="-1.812507">
<ele>82</ele>
<time>2021-06-03T00:43:16Z</time></trkpt>
<trkpt lat="52.267646" lon="-1.813516">
<ele>88</ele>
<time>2021-06-03T00:43:36Z</time></trkpt>
<trkpt lat="52.265773" lon="-1.816135">
<ele>94</ele>
<time>2021-06-03T00:44:32Z</time></trkpt>
<trkpt lat="52.26535" lon="-1.816499">
<ele>91</ele>
<time>2021-06-03T00:44:35Z</time></trkpt>
<trkpt lat="52.264237" lon="-1.816812">
<ele>82</ele>
<time>2021-06-03T00:44:47Z</time></trkpt>
<trkpt lat="52.263447" lon="-1.817765">
<ele>83</ele>
<time>2021-06-03T00:45:01Z</time></trkpt>
<trkpt lat="52.262418" lon="-1.816729">
<ele>81</ele>
<time>2021-06-03T00:45:19Z</time></trkpt>
<trkpt lat="52.261982" lon="-1.816033">
<ele>79</ele>
<time>2021-06-03T00:45:27Z</time></trkpt>
<trkpt lat="52.261799" lon="-1.815875">
<ele>79</ele>
<time>2021-06-03T00:45:29Z</time></trkpt>
<trkpt lat="52.26121" lon="-1.815665">
<ele>78</ele>
<time>2021-06-03T00:45:37Z</time></trkpt>
<trkpt lat="52.26062" lon="-1.815562">
<ele>77</ele>
<time>2021-06-03T00:45:45Z</time></trkpt>
<trkpt lat="52.260229" lon="-1.814739">
<ele>75</ele>
<time>2021-06-03T00:45:53Z</time></trkpt>
<trkpt lat="52.259416" lon="-1.814149">
<ele>75</ele>
<time>2021-06-03T00:46:07Z</time></trkpt>
<trkpt lat="52.258897" lon="-1.813521">
<ele>73</ele>
<time>2021-06-03T00:46:15Z</time></trkpt>
<trkpt lat="52.258289" lon="-1.81306">
<ele>71</ele>
<time>2021-06-03T00:46:24Z</time></trkpt>
<trkpt lat="52.257773" lon="-1.812523">
<ele>69</ele>
<time>2021-06-03T00:46:31Z</time></trkpt>
<trkpt lat="52.257272" lon="-1.811885">
<ele>68</ele>
<time>2021-06-03T00:46:41Z</time></trkpt>
<trkpt lat="52.257075" lon="-1.811736">
<ele>68</ele>
<time>2021-06-03T00:46:44Z</time></trkpt>
<trkpt lat="52.256733" lon="-1.811681">
<ele>69</ele>
<time>2021-06-03T00:46:49Z</time></trkpt>
<trkpt lat="52.256089" lon="-1.812069">
<ele>69</ele>
<time>2021-06-03T00:47:00Z</time></trkpt>
<trkpt lat="52.255911" lon="-1.812077">
<ele>69</ele>
<time>2021-06-03T00:47:03Z</time></trkpt>
<trkpt lat="52.255558" lon="-1.811726">
<ele>69</ele>
<time>2021-06-03T00:47:10Z</time></trkpt>
<trkpt lat="52.25518" lon="-1.810905">
<ele>69</ele>
<time>2021-06-03T00:47:20Z</time></trkpt>
<trkpt lat="52.25456" lon="-1.807518">
<ele>67</ele>
<time>2021-06-03T00:47:52Z</time></trkpt>
<trkpt lat="52.25435" lon="-1.806905">
<ele>66</ele>
<time>2021-06-03T00:47:58Z</time></trkpt>
<trkpt lat="52.253596" lon="-1.805303">
<ele>64</ele>
<time>2021-06-03T00:48:14Z</time></trkpt>
<trkpt lat="52.253329" lon="-1.804424">
<ele>63</ele>
<time>2021-06-03T00:48:22Z</time></trkpt>
<trkpt lat="52.253122" lon="-1.803448">
<ele>60</ele>
<time>2021-06-03T00:48:30Z</time></trkpt>
<trkpt lat="52.25294" lon="-1.801845">
<ele>59</ele>
<time>2021-06-03T00:48:44Z</time></trkpt>
<trkpt lat="52.252731" lon="-1.800987">
<ele>59</ele>
<time>2021-06-03T00:48:53Z</time></trkpt>
<trkpt lat="52.251612" lon="-1.798138">
<ele>58</ele>
<time>2021-06-03T00:49:25Z</time></trkpt>
<trkpt lat="52.251559" lon="-1.797562">
<ele>57</ele>
<time>2021-06-03T00:49:30Z</time></trkpt>
<trkpt lat="52.251622" lon="-1.797235">
<ele>57</ele>
<time>2021-06-03T00:49:33Z</time></trkpt>
<trkpt lat="52.250675" lon="-1.7955">
<ele>56</ele>
<time>2021-06-03T00:49:54Z</time></trkpt>
<trkpt lat="52.250427" lon="-1.795204">
<ele>56</ele>
<time>2021-06-03T00:49:58Z</time></trkpt>
<trkpt lat="52.249554" lon="-1.794682">
<ele>55</ele>
<time>2021-06-03T00:50:12Z</time></trkpt>
<trkpt lat="52.249428" lon="-1.794672">
<ele>55</ele>
<time>2021-06-03T00:50:14Z</time></trkpt>
<trkpt lat="52.249251" lon="-1.794811">
<ele>56</ele>
<time>2021-06-03T00:50:17Z</time></trkpt>
<trkpt lat="52.24851" lon="-1.794251">
<ele>55</ele>
<time>2021-06-03T00:50:30Z</time></trkpt>
<trkpt lat="52.247581" lon="-1.793039">
<ele>54</ele>
<time>2021-06-03T00:50:48Z</time></trkpt>
<trkpt lat="52.247041" lon="-1.791889">
<ele>56</ele>
<time>2021-06-03T00:51:10Z</time></trkpt>
<trkpt lat="52.246885" lon="-1.791374">
<ele>57</ele>
<time>2021-06-03T00:51:18Z</time></trkpt>
<trkpt lat="52.245884" lon="-1.792606">
<ele>58</ele>
<time>2021-06-03T00:51:39Z</time></trkpt>
<trkpt lat="52.243621" lon="-1.7936">
<ele>57</ele>
<time>2021-06-03T00:52:15Z</time></trkpt>
<trkpt lat="52.243034" lon="-1.793689">
<ele>56</ele>
<time>2021-06-03T00:52:23Z</time></trkpt>
<trkpt lat="52.241306" lon="-1.793577">
<ele>57</ele>
<time>2021-06-03T00:52:53Z</time></trkpt>
<trkpt lat="52.240956" lon="-1.793621">
<ele>56</ele>
<time>2021-06-03T00:52:58Z</time></trkpt>
<trkpt lat="52.240706" lon="-1.793864">
<ele>56</ele>
<time>2021-06-03T00:53:03Z</time></trkpt>
<trkpt lat="52.239896" lon="-1.795525">
<ele>55</ele>
<time>2021-06-03T00:53:22Z</time></trkpt>
<trkpt lat="52.239073" lon="-1.797722">
<ele>55</ele>
<time>2021-06-03T00:53:47Z</time></trkpt>
<trkpt lat="52.238838" lon="-1.798039">
<ele>55</ele>
<time>2021-06-03T00:53:52Z</time></trkpt>
<trkpt lat="52.238257" lon="-1.79832">
<ele>56</ele>
<time>2021-06-03T00:54:02Z</time></trkpt>
<trkpt lat="52.237304" lon="-1.798323">
<ele>55</ele>
<time>2021-06-03T00:54:17Z</time></trkpt>
<trkpt lat="52.236757" lon="-1.798154">
<ele>54</ele>
<time>2021-06-03T00:54:25Z</time></trkpt>
<trkpt lat="52.236402" lon="-1.798147">
<ele>54</ele>
<time>2021-06-03T00:54:30Z</time></trkpt>
<trkpt lat="52.234214" lon="-1.797119">
<ele>53</ele>
<time>2021-06-03T00:55:08Z</time></trkpt>
<trkpt lat="52.234058" lon="-1.795913">
<ele>54</ele>
<time>2021-06-03T00:55:20Z</time></trkpt>
<trkpt lat="52.233563" lon="-1.794904">
<ele>54</ele>
<time>2021-06-03T00:55:33Z</time></trkpt>
<trkpt lat="52.23347" lon="-1.792627">
<ele>55</ele>
<time>2021-06-03T00:55:58Z</time></trkpt>
<trkpt lat="52.233339" lon="-1.792045">
<ele>56</ele>
<time>2021-06-03T00:56:05Z</time></trkpt>
<trkpt lat="52.232495" lon="-1.791472">
<ele>56</ele>
<time>2021-06-03T00:56:21Z</time></trkpt>
<trkpt lat="52.231824" lon="-1.790874">
<ele>57</ele>
<time>2021-06-03T00:56:36Z</time></trkpt>
<trkpt lat="52.229985" lon="-1.789596">
<ele>58</ele>
<time>2021-06-03T00:57:12Z</time></trkpt>
<trkpt lat="52.22856" lon="-1.78825">
<ele>58</ele>
<time>2021-06-03T00:57:38Z</time></trkpt>
<trkpt lat="52.224909" lon="-1.786881">
<ele>60</ele>
<time>2021-06-03T00:58:43Z</time></trkpt>
<trkpt lat="52.225995" lon="-1.783513">
<ele>60</ele>
<time>2021-06-03T00:59:23Z</time></trkpt>
<trkpt lat="52.226305" lon="-1.782214">
<ele>62</ele>
<time>2021-06-03T00:59:40Z</time></trkpt>
<trkpt lat="52.226338" lon="-1.78159">
<ele>62</ele>
<time>2021-06-03T00:59:48Z</time></trkpt>
<trkpt lat="52.22625" lon="-1.780804">
<ele>63</ele>
<time>2021-06-03T00:59:58Z</time></trkpt>
<trkpt lat="52.225691" lon="-1.777063">
<ele>78</ele>
<time>2021-06-03T01:01:15Z</time></trkpt>
<trkpt lat="52.225471" lon="-1.776409">
<ele>82</ele>
<time>2021-06-03T01:01:35Z</time></trkpt>
<trkpt lat="52.223637" lon="-1.77284">
<ele>85</ele>
<time>2021-06-03T01:02:29Z</time></trkpt>
<trkpt lat="52.221936" lon="-1.766183">
<ele>80</ele>
<time>2021-06-03T01:03:32Z</time></trkpt>
<trkpt lat="52.221399" lon="-1.762992">
<ele>75</ele>
<time>2021-06-03T01:03:59Z</time></trkpt>
<trkpt lat="52.220519" lon="-1.761831">
<ele>73</ele>
<time>2021-06-03T01:04:15Z</time></trkpt>
<trkpt lat="52.223013" lon="-1.756782">
<ele>75</ele>
<time>2021-06-03T01:05:23Z</time></trkpt>
<trkpt lat="52.223483" lon="-1.755136">
<ele>75</ele>
<time>2021-06-03T01:05:43Z</time></trkpt>
<trkpt lat="52.223985" lon="-1.753806">
<ele>76</ele>
<time>2021-06-03T01:05:59Z</time></trkpt>
<trkpt lat="52.224143" lon="-1.753054">
<ele>77</ele>
<time>2021-06-03T01:06:07Z</time></trkpt>
<trkpt lat="52.224157" lon="-1.749905">
<ele>76</ele>
<time>2021-06-03T01:06:38Z</time></trkpt>
<trkpt lat="52.224929" lon="-1.742745">
<ele>83</ele>
<time>2021-06-03T01:08:09Z</time></trkpt>
<trkpt lat="52.224897" lon="-1.739489">
<ele>86</ele>
<time>2021-06-03T01:08:51Z</time></trkpt>
<trkpt lat="52.225052" lon="-1.738253">
<ele>88</ele>
<time>2021-06-03T01:09:05Z</time></trkpt>
<trkpt lat="52.223731" lon="-1.736838">
<ele>87</ele>
<time>2021-06-03T01:09:31Z</time></trkpt>
<trkpt lat="52.223015" lon="-1.735917">
<ele>87</ele>
<time>2021-06-03T01:09:48Z</time></trkpt>
<trkpt lat="52.223662" lon="-1.735073">
<ele>91</ele>
<time>2021-06-03T01:10:13Z</time></trkpt>
<trkpt lat="52.225484" lon="-1.733557">
<ele>103</ele>
<time>2021-06-03T01:11:24Z</time></trkpt>
<trkpt lat="52.226258" lon="-1.732495">
<ele>116</ele>
<time>2021-06-03T01:12:05Z</time></trkpt>
<trkpt lat="52.226882" lon="-1.731897">
<ele>119</ele>
<time>2021-06-03T01:12:25Z</time></trkpt>
<trkpt lat="52.227102" lon="-1.731274">
<ele>120</ele>
<time>2021-06-03T01:12:37Z</time></trkpt>
<trkpt lat="52.227792" lon="-1.724154">
<ele>116</ele>
<time>2021-06-03T01:13:46Z</time></trkpt>
<trkpt lat="52.228254" lon="-1.721576">
<ele>113</ele>
<time>2021-06-03T01:14:08Z</time></trkpt>
<trkpt lat="52.228431" lon="-1.720085">
<ele>113</ele>
<time>2021-06-03T01:14:21Z</time></trkpt>
<trkpt lat="52.22847" lon="-1.717223">
<ele>107</ele>
<time>2021-06-03T01:14:42Z</time></trkpt>
<trkpt lat="52.228373" lon="-1.713235">
<ele>103</ele>
<time>2021-06-03T01:15:16Z</time></trkpt>
<trkpt lat="52.228604" lon="-1.709694">
<ele>100</ele>
<time>2021-06-03T01:15:47Z</time></trkpt>
<trkpt lat="52.22852" lon="-1.706606">
<ele>98</ele>
<time>2021-06-03T01:16:13Z</time></trkpt>
<trkpt lat="52.228579" lon="-1.703779">
<ele>95</ele>
<time>2021-06-03T01:16:38Z</time></trkpt>
<trkpt lat="52.229306" lon="-1.703621">
<ele>94</ele>
<time>2021-06-03T01:16:48Z</time></trkpt>
<trkpt lat="52.229673" lon="-1.703177">
<ele>93</ele>
<time>2021-06-03T01:16:55Z</time></trkpt>
<trkpt lat="52.230601" lon="-1.700383">
<ele>92</ele>
<time>2021-06-03T01:17:24Z</time></trkpt>
<trkpt lat="52.231432" lon="-1.698576">
<ele>91</ele>
<time>2021-06-03T01:17:45Z</time></trkpt>
<trkpt lat="52.231634" lon="-1.697742">
<ele>92</ele>
<time>2021-06-03T01:17:54Z</time></trkpt>
<trkpt lat="52.232999" lon="-1.694266">
<ele>90</ele>
<time>2021-06-03T01:18:33Z</time></trkpt>
<trkpt lat="52.233622" lon="-1.692954">
<ele>88</ele>
<time>2021-06-03T01:18:46Z</time></trkpt>
<trkpt lat="52.234056" lon="-1.692347">
<ele>87</ele>
<time>2021-06-03T01:18:57Z</time></trkpt>
<trkpt lat="52.235356" lon="-1.691268">
<ele>88</ele>
<time>2021-06-03T01:19:20Z</time></trkpt>
<trkpt lat="52.236049" lon="-1.690301">
<ele>86</ele>
<time>2021-06-03T01:19:32Z</time></trkpt>
<trkpt lat="52.236629" lon="-1.689206">
<ele>85</ele>
<time>2021-06-03T01:19:45Z</time></trkpt>
<trkpt lat="52.236917" lon="-1.68898">
<ele>85</ele>
<time>2021-06-03T01:19:50Z</time></trkpt>
<trkpt lat="52.236994" lon="-1.688898">
<ele>85</ele>
<time>2021-06-03T01:19:52Z</time></trkpt>
<trkpt lat="52.237592" lon="-1.687654">
<ele>86</ele>
<time>2021-06-03T01:20:09Z</time></trkpt>
<trkpt lat="52.237741" lon="-1.687423">
<ele>86</ele>
<time>2021-06-03T01:20:13Z</time></trkpt>
<trkpt lat="52.237899" lon="-1.687224">
<ele>85</ele>
<time>2021-06-03T01:20:17Z</time></trkpt>
<trkpt lat="52.237984" lon="-1.687169">
<ele>85</ele>
<time>2021-06-03T01:20:19Z</time></trkpt>
<trkpt lat="52.237944" lon="-1.686903">
<ele>85</ele>
<time>2021-06-03T01:20:22Z</time></trkpt>
<trkpt lat="52.237853" lon="-1.68675">
<ele>85</ele>
<time>2021-06-03T01:20:25Z</time></trkpt>
<trkpt lat="52.237527" lon="-1.68632">
<ele>86</ele>
<time>2021-06-03T01:20:33Z</time></trkpt>
<trkpt lat="52.237161" lon="-1.685759">
<ele>89</ele>
<time>2021-06-03T01:20:45Z</time></trkpt>
<trkpt lat="52.236568" lon="-1.685005">
<ele>94</ele>
<time>2021-06-03T01:21:08Z</time></trkpt>
<trkpt lat="52.23631" lon="-1.684591">
<ele>95</ele>
<time>2021-06-03T01:21:19Z</time></trkpt>
<trkpt lat="52.236668" lon="-1.684148">
<ele>96</ele>
<time>2021-06-03T01:21:28Z</time></trkpt>
<trkpt lat="52.23735" lon="-1.683419">
<ele>96</ele>
<time>2021-06-03T01:21:42Z</time></trkpt>
<trkpt lat="52.23777" lon="-1.683098">
<ele>95</ele>
<time>2021-06-03T01:21:50Z</time></trkpt>
<trkpt lat="52.238086" lon="-1.683048">
<ele>94</ele>
<time>2021-06-03T01:21:54Z</time></trkpt>
<trkpt lat="52.238201" lon="-1.683007">
<ele>94</ele>
<time>2021-06-03T01:21:56Z</time></trkpt>
<trkpt lat="52.238307" lon="-1.682891">
<ele>94</ele>
<time>2021-06-03T01:21:58Z</time></trkpt>
<trkpt lat="52.238921" lon="-1.681671">
<ele>93</ele>
<time>2021-06-03T01:22:10Z</time></trkpt>
<trkpt lat="52.239315" lon="-1.680405">
<ele>90</ele>
<time>2021-06-03T01:22:21Z</time></trkpt>
<trkpt lat="52.239349" lon="-1.679977">
<ele>89</ele>
<time>2021-06-03T01:22:23Z</time></trkpt>
<trkpt lat="52.239398" lon="-1.679527">
<ele>88</ele>
<time>2021-06-03T01:22:26Z</time></trkpt>
<trkpt lat="52.239498" lon="-1.679082">
<ele>86</ele>
<time>2021-06-03T01:22:30Z</time></trkpt>
<trkpt lat="52.239643" lon="-1.678618">
<ele>85</ele>
<time>2021-06-03T01:22:33Z</time></trkpt>
<trkpt lat="52.239862" lon="-1.67813">
<ele>84</ele>
<time>2021-06-03T01:22:37Z</time></trkpt>
<trkpt lat="52.240076" lon="-1.677751">
<ele>82</ele>
<time>2021-06-03T01:22:40Z</time></trkpt>
<trkpt lat="52.240371" lon="-1.677293">
<ele>81</ele>
<time>2021-06-03T01:22:44Z</time></trkpt>
<trkpt lat="52.24091" lon="-1.676556">
<ele>79</ele>
<time>2021-06-03T01:22:52Z</time></trkpt>
<trkpt lat="52.241178" lon="-1.67622">
<ele>79</ele>
<time>2021-06-03T01:22:58Z</time></trkpt>
<trkpt lat="52.241362" lon="-1.676038">
<ele>79</ele>
<time>2021-06-03T01:23:01Z</time></trkpt>
<trkpt lat="52.242155" lon="-1.675365">
<ele>78</ele>
<time>2021-06-03T01:23:15Z</time></trkpt>
<trkpt lat="52.243863" lon="-1.673658">
<ele>78</ele>
<time>2021-06-03T01:23:47Z</time></trkpt>
<trkpt lat="52.244948" lon="-1.672321">
<ele>78</ele>
<time>2021-06-03T01:24:08Z</time></trkpt>
<trkpt lat="52.24511" lon="-1.6721">
<ele>78</ele>
<time>2021-06-03T01:24:12Z</time></trkpt>
<trkpt lat="52.245335" lon="-1.67186">
<ele>78</ele>
<time>2021-06-03T01:24:17Z</time></trkpt>
<trkpt lat="52.245559" lon="-1.671651">
<ele>79</ele>
<time>2021-06-03T01:24:22Z</time></trkpt>
<trkpt lat="52.246005" lon="-1.671296">
<ele>79</ele>
<time>2021-06-03T01:24:32Z</time></trkpt>
<trkpt lat="52.247532" lon="-1.670132">
<ele>83</ele>
<time>2021-06-03T01:25:08Z</time></trkpt>
<trkpt lat="52.247839" lon="-1.669956">
<ele>84</ele>
<time>2021-06-03T01:25:15Z</time></trkpt>
<trkpt lat="52.248529" lon="-1.669626">
<ele>86</ele>
<time>2021-06-03T01:25:28Z</time></trkpt>
<trkpt lat="52.250127" lon="-1.668753">
<ele>78</ele>
<time>2021-06-03T01:25:48Z</time></trkpt>
<trkpt lat="52.250975" lon="-1.668174">
<ele>76</ele>
<time>2021-06-03T01:25:59Z</time></trkpt>
<trkpt lat="52.251269" lon="-1.668186">
<ele>75</ele>
<time>2021-06-03T01:26:02Z</time></trkpt>
<trkpt lat="52.25149" lon="-1.668234">
<ele>74</ele>
<time>2021-06-03T01:26:05Z</time></trkpt>
<trkpt lat="52.251848" lon="-1.668352">
<ele>73</ele>
<time>2021-06-03T01:26:11Z</time></trkpt>
<trkpt lat="52.252575" lon="-1.668697">
<ele>73</ele>
<time>2021-06-03T01:26:23Z</time></trkpt>
<trkpt lat="52.25262" lon="-1.668721">
<ele>73</ele>
<time>2021-06-03T01:26:24Z</time></trkpt>
<trkpt lat="52.253776" lon="-1.669262">
<ele>77</ele>
<time>2021-06-03T01:26:53Z</time></trkpt>
<trkpt lat="52.254444" lon="-1.669371">
<ele>81</ele>
<time>2021-06-03T01:27:14Z</time></trkpt>
<trkpt lat="52.25579" lon="-1.669502">
<ele>90</ele>
<time>2021-06-03T01:27:57Z</time></trkpt>
<trkpt lat="52.256258" lon="-1.669471">
<ele>91</ele>
<time>2021-06-03T01:28:08Z</time></trkpt>
<trkpt lat="52.256991" lon="-1.669371">
<ele>93</ele>
<time>2021-06-03T01:28:25Z</time></trkpt>
<trkpt lat="52.257792" lon="-1.669165">
<ele>94</ele>
<time>2021-06-03T01:28:41Z</time></trkpt>
<trkpt lat="52.258402" lon="-1.668939">
<ele>95</ele>
<time>2021-06-03T01:28:53Z</time></trkpt>
<trkpt lat="52.258802" lon="-1.668668">
<ele>95</ele>
<time>2021-06-03T01:29:01Z</time></trkpt>
<trkpt lat="52.259205" lon="-1.668313">
<ele>95</ele>
<time>2021-06-03T01:29:09Z</time></trkpt>
<trkpt lat="52.259461" lon="-1.66818">
<ele>95</ele>
<time>2021-06-03T01:29:14Z</time></trkpt>
<trkpt lat="52.260021" lon="-1.66804">
<ele>95</ele>
<time>2021-06-03T01:29:23Z</time></trkpt>
<trkpt lat="52.260242" lon="-1.668022">
<ele>95</ele>
<time>2021-06-03T01:29:26Z</time></trkpt>
<trkpt lat="52.260938" lon="-1.668031">
<ele>95</ele>
<time>2021-06-03T01:29:37Z</time></trkpt>
<trkpt lat="52.261207" lon="-1.667992">
<ele>94</ele>
<time>2021-06-03T01:29:40Z</time></trkpt>
<trkpt lat="52.261561" lon="-1.6678">
<ele>92</ele>
<time>2021-06-03T01:29:45Z</time></trkpt>
<trkpt lat="52.261686" lon="-1.6677">
<ele>92</ele>
<time>2021-06-03T01:29:47Z</time></trkpt>
<trkpt lat="52.262024" lon="-1.667252">
<ele>91</ele>
<time>2021-06-03T01:29:53Z</time></trkpt>
<trkpt lat="52.262218" lon="-1.667046">
<ele>91</ele>
<time>2021-06-03T01:29:56Z</time></trkpt>
<trkpt lat="52.26235" lon="-1.666937">
<ele>91</ele>
<time>2021-06-03T01:29:58Z</time></trkpt>
<trkpt lat="52.262574" lon="-1.666846">
<ele>90</ele>
<time>2021-06-03T01:30:02Z</time></trkpt>
<trkpt lat="52.26361" lon="-1.666831">
<ele>94</ele>
<time>2021-06-03T01:30:27Z</time></trkpt>
<trkpt lat="52.264131" lon="-1.666795">
<ele>98</ele>
<time>2021-06-03T01:30:47Z</time></trkpt>
<trkpt lat="52.264454" lon="-1.666754">
<ele>101</ele>
<time>2021-06-03T01:31:00Z</time></trkpt>
<trkpt lat="52.264732" lon="-1.66669">
<ele>104</ele>
<time>2021-06-03T01:31:09Z</time></trkpt>
<trkpt lat="52.264975" lon="-1.666644">
<ele>106</ele>
<time>2021-06-03T01:31:17Z</time></trkpt>
<trkpt lat="52.265146" lon="-1.666693">
<ele>107</ele>
<time>2021-06-03T01:31:23Z</time></trkpt>
<trkpt lat="52.265293" lon="-1.666779">
<ele>107</ele>
<time>2021-06-03T01:31:28Z</time></trkpt>
<trkpt lat="52.265546" lon="-1.667064">
<ele>108</ele>
<time>2021-06-03T01:31:38Z</time></trkpt>
<trkpt lat="52.265602" lon="-1.666985">
<ele>109</ele>
<time>2021-06-03T01:31:40Z</time></trkpt>
<trkpt lat="52.266049" lon="-1.666796">
<ele>110</ele>
<time>2021-06-03T01:31:50Z</time></trkpt>
<trkpt lat="52.268457" lon="-1.666029">
<ele>98</ele>
<time>2021-06-03T01:32:13Z</time></trkpt>
<trkpt lat="52.268867" lon="-1.665933">
<ele>95</ele>
<time>2021-06-03T01:32:17Z</time></trkpt>
<trkpt lat="52.270488" lon="-1.66517">
<ele>89</ele>
<time>2021-06-03T01:32:36Z</time></trkpt>
<trkpt lat="52.270836" lon="-1.665043">
<ele>88</ele>
<time>2021-06-03T01:32:41Z</time></trkpt>
<trkpt lat="52.270984" lon="-1.665033">
<ele>89</ele>
<time>2021-06-03T01:32:43Z</time></trkpt>
<trkpt lat="52.271603" lon="-1.665136">
<ele>93</ele>
<time>2021-06-03T01:32:59Z</time></trkpt>
<trkpt lat="52.271783" lon="-1.665136">
<ele>94</ele>
<time>2021-06-03T01:33:03Z</time></trkpt>
<trkpt lat="52.271903" lon="-1.665111">
<ele>94</ele>
<time>2021-06-03T01:33:07Z</time></trkpt>
<trkpt lat="52.272012" lon="-1.665041">
<ele>94</ele>
<time>2021-06-03T01:33:10Z</time></trkpt>
<trkpt lat="52.272386" lon="-1.664612">
<ele>94</ele>
<time>2021-06-03T01:33:21Z</time></trkpt>
<trkpt lat="52.272562" lon="-1.664521">
<ele>94</ele>
<time>2021-06-03T01:33:23Z</time></trkpt>
<trkpt lat="52.272737" lon="-1.664479">
<ele>94</ele>
<time>2021-06-03T01:33:26Z</time></trkpt>
<trkpt lat="52.27286" lon="-1.664484">
<ele>93</ele>
<time>2021-06-03T01:33:28Z</time></trkpt>
<trkpt lat="52.273119" lon="-1.664666">
<ele>93</ele>
<time>2021-06-03T01:33:32Z</time></trkpt>
<trkpt lat="52.273425" lon="-1.664987">
<ele>93</ele>
<time>2021-06-03T01:33:38Z</time></trkpt>
<trkpt lat="52.273608" lon="-1.665128">
<ele>93</ele>
<time>2021-06-03T01:33:41Z</time></trkpt>
<trkpt lat="52.273755" lon="-1.665207">
<ele>93</ele>
<time>2021-06-03T01:33:43Z</time></trkpt>
<trkpt lat="52.273877" lon="-1.664514">
<ele>92</ele>
<time>2021-06-03T01:33:50Z</time></trkpt>
<trkpt lat="52.274088" lon="-1.664499">
<ele>91</ele>
<time>2021-06-03T01:33:54Z</time></trkpt>
<trkpt lat="52.274537" lon="-1.664802">
<ele>93</ele>
<time>2021-06-03T01:34:02Z</time></trkpt>
<trkpt lat="52.275137" lon="-1.665541">
<ele>97</ele>
<time>2021-06-03T01:34:23Z</time></trkpt>
<trkpt lat="52.275502" lon="-1.66568">
<ele>98</ele>
<time>2021-06-03T01:34:34Z</time></trkpt>
<trkpt lat="52.276259" lon="-1.666043">
<ele>101</ele>
<time>2021-06-03T01:34:53Z</time></trkpt>
<trkpt lat="52.276867" lon="-1.666515">
<ele>103</ele>
<time>2021-06-03T01:35:10Z</time></trkpt>
<trkpt lat="52.276988" lon="-1.666549">
<ele>104</ele>
<time>2021-06-03T01:35:13Z</time></trkpt>
<trkpt lat="52.277336" lon="-1.666445">
<ele>105</ele>
<time>2021-06-03T01:35:22Z</time></trkpt>
<trkpt lat="52.277562" lon="-1.666497">
<ele>106</ele>
<time>2021-06-03T01:35:28Z</time></trkpt>
<trkpt lat="52.278918" lon="-1.666906">
<ele>110</ele>
<time>2021-06-03T01:36:03Z</time></trkpt>
<trkpt lat="52.279587" lon="-1.667314">
<ele>112</ele>
<time>2021-06-03T01:36:20Z</time></trkpt>
<trkpt lat="52.279804" lon="-1.667349">
<ele>112</ele>
<time>2021-06-03T01:36:24Z</time></trkpt>
<trkpt lat="52.279987" lon="-1.667245">
<ele>113</ele>
<time>2021-06-03T01:36:28Z</time></trkpt>
<trkpt lat="52.280726" lon="-1.666436">
<ele>114</ele>
<time>2021-06-03T01:36:46Z</time></trkpt>
<trkpt lat="52.280925" lon="-1.666341">
<ele>114</ele>
<time>2021-06-03T01:36:51Z</time></trkpt>
<trkpt lat="52.282277" lon="-1.666832">
<ele>120</ele>
<time>2021-06-03T01:37:25Z</time></trkpt>
<trkpt lat="52.282376" lon="-1.666784">
<ele>120</ele>
<time>2021-06-03T01:37:26Z</time></trkpt>
<trkpt lat="52.283648" lon="-1.665658">
<ele>117</ele>
<time>2021-06-03T01:37:48Z</time></trkpt>
<trkpt lat="52.28448" lon="-1.664802">
<ele>117</ele>
<time>2021-06-03T01:38:06Z</time></trkpt>
<trkpt lat="52.285526" lon="-1.667163">
<ele>116</ele>
<time>2021-06-03T01:38:31Z</time></trkpt>
<trkpt lat="52.285824" lon="-1.668809">
<ele>111</ele>
<time>2021-06-03T01:38:43Z</time></trkpt>
<trkpt lat="52.2859438" lon="-1.6692971">
<ele>110</ele>
<time>2021-06-03T01:38:47Z</time></trkpt>
<trkpt lat="52.28609" lon="-1.669951">
<ele>109</ele>
<time>2021-06-03T01:38:52Z</time></trkpt>
<trkpt lat="52.286326" lon="-1.670854">
<ele>109</ele>
<time>2021-06-03T01:39:01Z</time></trkpt>
<trkpt lat="52.287183" lon="-1.670898">
<ele>110</ele>
<time>2021-06-03T01:39:19Z</time></trkpt>
<trkpt lat="52.287698" lon="-1.670981">
<ele>111</ele>
<time>2021-06-03T01:39:28Z</time></trkpt>
<trkpt lat="52.287856" lon="-1.67108">
<ele>111</ele>
<time>2021-06-03T01:39:31Z</time></trkpt>
<trkpt lat="52.28796" lon="-1.671252">
<ele>111</ele>
<time>2021-06-03T01:39:33Z</time></trkpt>
<trkpt lat="52.28811" lon="-1.672125">
<ele>111</ele>
<time>2021-06-03T01:39:42Z</time></trkpt>
<trkpt lat="52.288279" lon="-1.673296">
<ele>110</ele>
<time>2021-06-03T01:39:53Z</time></trkpt>
<trkpt lat="52.288396" lon="-1.674279">
<ele>110</ele>
<time>2021-06-03T01:40:02Z</time></trkpt>
<trkpt lat="52.288383" lon="-1.67477">
<ele>108</ele>
<time>2021-06-03T01:40:06Z</time></trkpt>
<trkpt lat="52.288328" lon="-1.67507">
<ele>108</ele>
<time>2021-06-03T01:40:07Z</time></trkpt>
<trkpt lat="52.288266" lon="-1.676055">
<ele>105</ele>
<time>2021-06-03T01:40:13Z</time></trkpt>
<trkpt lat="52.289042" lon="-1.678396">
<ele>96</ele>
<time>2021-06-03T01:40:28Z</time></trkpt>
<trkpt lat="52.289607" lon="-1.680404">
<ele>100</ele>
<time>2021-06-03T01:41:00Z</time></trkpt>
<trkpt lat="52.289973" lon="-1.681184">
<ele>101</ele>
<time>2021-06-03T01:41:14Z</time></trkpt>
<trkpt lat="52.29085" lon="-1.682894">
<ele>105</ele>
<time>2021-06-03T01:41:43Z</time></trkpt>
<trkpt lat="52.292404" lon="-1.685676">
<ele>115</ele>
<time>2021-06-03T01:42:49Z</time></trkpt>
<trkpt lat="52.293079" lon="-1.687305">
<ele>120</ele>
<time>2021-06-03T01:43:23Z</time></trkpt>
<trkpt lat="52.294009" lon="-1.689708">
<ele>124</ele>
<time>2021-06-03T01:43:58Z</time></trkpt>
<trkpt lat="52.294617" lon="-1.691332">
<ele>123</ele>
<time>2021-06-03T01:44:17Z</time></trkpt>
<trkpt lat="52.29466" lon="-1.691838">
<ele>122</ele>
<time>2021-06-03T01:44:22Z</time></trkpt>
<trkpt lat="52.294608" lon="-1.692524">
<ele>123</ele>
<time>2021-06-03T01:44:28Z</time></trkpt>
<trkpt lat="52.294603" lon="-1.692848">
<ele>123</ele>
<time>2021-06-03T01:44:31Z</time></trkpt>
<trkpt lat="52.294637" lon="-1.693115">
<ele>122</ele>
<time>2021-06-03T01:44:33Z</time></trkpt>
<trkpt lat="52.29507" lon="-1.695051">
<ele>117</ele>
<time>2021-06-03T01:44:48Z</time></trkpt>
<trkpt lat="52.295368" lon="-1.69664">
<ele>116</ele>
<time>2021-06-03T01:45:03Z</time></trkpt>
<trkpt lat="52.295505" lon="-1.697026">
<ele>117</ele>
<time>2021-06-03T01:45:07Z</time></trkpt>
<trkpt lat="52.295678" lon="-1.69727">
<ele>117</ele>
<time>2021-06-03T01:45:11Z</time></trkpt>
<trkpt lat="52.295867" lon="-1.697026">
<ele>117</ele>
<time>2021-06-03T01:45:14Z</time></trkpt>
<trkpt lat="52.297101" lon="-1.695927">
<ele>116</ele>
<time>2021-06-03T01:45:36Z</time></trkpt>
<trkpt lat="52.298135" lon="-1.695297">
<ele>119</ele>
<time>2021-06-03T01:46:03Z</time></trkpt>
<trkpt lat="52.298615" lon="-1.694927">
<ele>120</ele>
<time>2021-06-03T01:46:15Z</time></trkpt>
<trkpt lat="52.298968" lon="-1.694564">
<ele>121</ele>
<time>2021-06-03T01:46:24Z</time></trkpt>
<trkpt lat="52.300589" lon="-1.692707">
<ele>120</ele>
<time>2021-06-03T01:46:57Z</time></trkpt>
<trkpt lat="52.301345" lon="-1.691482">
<ele>123</ele>
<time>2021-06-03T01:47:20Z</time></trkpt>
<trkpt lat="52.302598" lon="-1.689222">
<ele>125</ele>
<time>2021-06-03T01:47:52Z</time></trkpt>
<trkpt lat="52.303911" lon="-1.687122">
<ele>124</ele>
<time>2021-06-03T01:48:28Z</time></trkpt>
<trkpt lat="52.304876" lon="-1.685526">
<ele>124</ele>
<time>2021-06-03T01:48:49Z</time></trkpt>
<trkpt lat="52.304934" lon="-1.685459">
<ele>124</ele>
<time>2021-06-03T01:48:50Z</time></trkpt>
<trkpt lat="52.306057" lon="-1.684154">
<ele>125</ele>
<time>2021-06-03T01:49:17Z</time></trkpt>
<trkpt lat="52.306413" lon="-1.683709">
<ele>126</ele>
<time>2021-06-03T01:49:26Z</time></trkpt>
<trkpt lat="52.306458" lon="-1.683518">
<ele>126</ele>
<time>2021-06-03T01:49:28Z</time></trkpt>
<trkpt lat="52.306634" lon="-1.683603">
<ele>126</ele>
<time>2021-06-03T01:49:32Z</time></trkpt>
<trkpt lat="52.306781" lon="-1.683313">
<ele>127</ele>
<time>2021-06-03T01:49:36Z</time></trkpt>
<trkpt lat="52.30966" lon="-1.68002">
<ele>129</ele>
<time>2021-06-03T01:50:35Z</time></trkpt>
<trkpt lat="52.310745" lon="-1.678733">
<ele>128</ele>
<time>2021-06-03T01:50:57Z</time></trkpt>
<trkpt lat="52.311588" lon="-1.677788">
<ele>128</ele>
<time>2021-06-03T01:51:13Z</time></trkpt>
<trkpt lat="52.31218" lon="-1.679025">
<ele>128</ele>
<time>2021-06-03T01:51:28Z</time></trkpt>
<trkpt lat="52.312382" lon="-1.679494">
<ele>127</ele>
<time>2021-06-03T01:51:33Z</time></trkpt>
<trkpt lat="52.312817" lon="-1.680823">
<ele>125</ele>
<time>2021-06-03T01:51:45Z</time></trkpt>
<trkpt lat="52.313166" lon="-1.681691">
<ele>123</ele>
<time>2021-06-03T01:51:52Z</time></trkpt>
<trkpt lat="52.313455" lon="-1.682574">
<ele>123</ele>
<time>2021-06-03T01:52:00Z</time></trkpt>
<trkpt lat="52.313769" lon="-1.683055">
<ele>121</ele>
<time>2021-06-03T01:52:05Z</time></trkpt>
<trkpt lat="52.314027" lon="-1.683338">
<ele>119</ele>
<time>2021-06-03T01:52:09Z</time></trkpt>
<trkpt lat="52.31482" lon="-1.684008">
<ele>114</ele>
<time>2021-06-03T01:52:17Z</time></trkpt>
<trkpt lat="52.315152" lon="-1.684247">
<ele>112</ele>
<time>2021-06-03T01:52:20Z</time></trkpt>
<trkpt lat="52.315551" lon="-1.684464">
<ele>110</ele>
<time>2021-06-03T01:52:24Z</time></trkpt>
<trkpt lat="52.316512" lon="-1.685404">
<ele>107</ele>
<time>2021-06-03T01:52:37Z</time></trkpt>
<trkpt lat="52.316866" lon="-1.68568">
<ele>106</ele>
<time>2021-06-03T01:52:41Z</time></trkpt>
<trkpt lat="52.317567" lon="-1.686105">
<ele>103</ele>
<time>2021-06-03T01:52:50Z</time></trkpt>
<trkpt lat="52.318653" lon="-1.687071">
<ele>102</ele>
<time>2021-06-03T01:53:09Z</time></trkpt>
<trkpt lat="52.319812" lon="-1.688276">
<ele>105</ele>
<time>2021-06-03T01:53:40Z</time></trkpt>
<trkpt lat="52.320137" lon="-1.688556">
<ele>107</ele>
<time>2021-06-03T01:53:51Z</time></trkpt>
<trkpt lat="52.320536" lon="-1.688817">
<ele>111</ele>
<time>2021-06-03T01:54:05Z</time></trkpt>
<trkpt lat="52.321505" lon="-1.689003">
<ele>115</ele>
<time>2021-06-03T01:54:35Z</time></trkpt>
<trkpt lat="52.321782" lon="-1.688955">
<ele>116</ele>
<time>2021-06-03T01:54:40Z</time></trkpt>
<trkpt lat="52.321954" lon="-1.68889">
<ele>116</ele>
<time>2021-06-03T01:54:43Z</time></trkpt>
<trkpt lat="52.322497" lon="-1.688604">
<ele>116</ele>
<time>2021-06-03T01:54:53Z</time></trkpt>
<trkpt lat="52.323179" lon="-1.688183">
<ele>116</ele>
<time>2021-06-03T01:55:05Z</time></trkpt>
<trkpt lat="52.32336" lon="-1.687989">
<ele>116</ele>
<time>2021-06-03T01:55:09Z</time></trkpt>
<trkpt lat="52.323587" lon="-1.687841">
<ele>116</ele>
<time>2021-06-03T01:55:13Z</time></trkpt>
<trkpt lat="52.324048" lon="-1.687759">
<ele>116</ele>
<time>2021-06-03T01:55:19Z</time></trkpt>
<trkpt lat="52.324553" lon="-1.687752">
<ele>114</ele>
<time>2021-06-03T01:55:24Z</time></trkpt>
<trkpt lat="52.325014" lon="-1.687807">
<ele>112</ele>
<time>2021-06-03T01:55:29Z</time></trkpt>
<trkpt lat="52.325757" lon="-1.688022">
<ele>108</ele>
<time>2021-06-03T01:55:38Z</time></trkpt>
<trkpt lat="52.325974" lon="-1.688112">
<ele>108</ele>
<time>2021-06-03T01:55:40Z</time></trkpt>
<trkpt lat="52.326307" lon="-1.688302">
<ele>106</ele>
<time>2021-06-03T01:55:44Z</time></trkpt>
<trkpt lat="52.326541" lon="-1.688526">
<ele>105</ele>
<time>2021-06-03T01:55:47Z</time></trkpt>
<trkpt lat="52.326792" lon="-1.688827">
<ele>104</ele>
<time>2021-06-03T01:55:52Z</time></trkpt>
<trkpt lat="52.326903" lon="-1.688881">
<ele>104</ele>
<time>2021-06-03T01:55:54Z</time></trkpt>
<trkpt lat="52.326991" lon="-1.688897">
<ele>104</ele>
<time>2021-06-03T01:55:55Z</time></trkpt>
<trkpt lat="52.327403" lon="-1.688846">
<ele>104</ele>
<time>2021-06-03T01:56:01Z</time></trkpt>
<trkpt lat="52.327499" lon="-1.688864">
<ele>104</ele>
<time>2021-06-03T01:56:03Z</time></trkpt>
<trkpt lat="52.327718" lon="-1.688974">
<ele>105</ele>
<time>2021-06-03T01:56:06Z</time></trkpt>
<trkpt lat="52.327954" lon="-1.689194">
<ele>106</ele>
<time>2021-06-03T01:56:16Z</time></trkpt>
<trkpt lat="52.328098" lon="-1.689423">
<ele>107</ele>
<time>2021-06-03T01:56:23Z</time></trkpt>
<trkpt lat="52.328285" lon="-1.689812">
<ele>111</ele>
<time>2021-06-03T01:56:33Z</time></trkpt>
<trkpt lat="52.32834" lon="-1.689894">
<ele>111</ele>
<time>2021-06-03T01:56:36Z</time></trkpt>
<trkpt lat="52.329181" lon="-1.690799">
<ele>118</ele>
<time>2021-06-03T01:57:07Z</time></trkpt>
<trkpt lat="52.329457" lon="-1.691167">
<ele>119</ele>
<time>2021-06-03T01:57:17Z</time></trkpt>
<trkpt lat="52.329851" lon="-1.691797">
<ele>120</ele>
<time>2021-06-03T01:57:32Z</time></trkpt>
<trkpt lat="52.331123" lon="-1.693267">
<ele>121</ele>
<time>2021-06-03T01:58:02Z</time></trkpt>
<trkpt lat="52.331346" lon="-1.693589">
<ele>122</ele>
<time>2021-06-03T01:58:09Z</time></trkpt>
<trkpt lat="52.331559" lon="-1.69404">
<ele>123</ele>
<time>2021-06-03T01:58:17Z</time></trkpt>
<trkpt lat="52.331646" lon="-1.694303">
<ele>124</ele>
<time>2021-06-03T01:58:22Z</time></trkpt>
<trkpt lat="52.331707" lon="-1.694487">
<ele>125</ele>
<time>2021-06-03T01:58:25Z</time></trkpt>
<trkpt lat="52.332102" lon="-1.695357">
<ele>126</ele>
<time>2021-06-03T01:58:42Z</time></trkpt>
<trkpt lat="52.332873" lon="-1.697658">
<ele>132</ele>
<time>2021-06-03T01:59:19Z</time></trkpt>
<trkpt lat="52.333028" lon="-1.697996">
<ele>132</ele>
<time>2021-06-03T01:59:24Z</time></trkpt>
<trkpt lat="52.333397" lon="-1.698578">
<ele>131</ele>
<time>2021-06-03T01:59:33Z</time></trkpt>
<trkpt lat="52.33369" lon="-1.69891">
<ele>131</ele>
<time>2021-06-03T01:59:39Z</time></trkpt>
<trkpt lat="52.3347" lon="-1.699897">
<ele>130</ele>
<time>2021-06-03T01:59:55Z</time></trkpt>
<trkpt lat="52.33538" lon="-1.700496">
<ele>129</ele>
<time>2021-06-03T02:00:05Z</time></trkpt>
<trkpt lat="52.336256" lon="-1.701623">
<ele>125</ele>
<time>2021-06-03T02:00:19Z</time></trkpt>
<trkpt lat="52.336573" lon="-1.7018">
<ele>125</ele>
<time>2021-06-03T02:00:23Z</time></trkpt>
<trkpt lat="52.336972" lon="-1.70193">
<ele>125</ele>
<time>2021-06-03T02:00:32Z</time></trkpt>
<trkpt lat="52.337702" lon="-1.702023">
<ele>127</ele>
<time>2021-06-03T02:00:50Z</time></trkpt>
<trkpt lat="52.338114" lon="-1.701925">
<ele>128</ele>
<time>2021-06-03T02:01:00Z</time></trkpt>
<trkpt lat="52.338486" lon="-1.701714">
<ele>129</ele>
<time>2021-06-03T02:01:09Z</time></trkpt>
<trkpt lat="52.33948" lon="-1.700875">
<ele>132</ele>
<time>2021-06-03T02:01:33Z</time></trkpt>
<trkpt lat="52.339687" lon="-1.700754">
<ele>132</ele>
<time>2021-06-03T02:01:36Z</time></trkpt>
<trkpt lat="52.339898" lon="-1.700744">
<ele>132</ele>
<time>2021-06-03T02:01:39Z</time></trkpt>
<trkpt lat="52.340104" lon="-1.700842">
<ele>131</ele>
<time>2021-06-03T02:01:42Z</time></trkpt>
<trkpt lat="52.340726" lon="-1.701366">
<ele>130</ele>
<time>2021-06-03T02:01:52Z</time></trkpt>
<trkpt lat="52.340917" lon="-1.701459">
<ele>129</ele>
<time>2021-06-03T02:01:55Z</time></trkpt>
<trkpt lat="52.341444" lon="-1.701448">
<ele>129</ele>
<time>2021-06-03T02:02:03Z</time></trkpt>
<trkpt lat="52.342153" lon="-1.701269">
<ele>130</ele>
<time>2021-06-03T02:02:14Z</time></trkpt>
<trkpt lat="52.342325" lon="-1.7013">
<ele>130</ele>
<time>2021-06-03T02:02:17Z</time></trkpt>
<trkpt lat="52.34268" lon="-1.701454">
<ele>129</ele>
<time>2021-06-03T02:02:22Z</time></trkpt>
<trkpt lat="52.34338" lon="-1.701316">
<ele>127</ele>
<time>2021-06-03T02:02:34Z</time></trkpt>
<trkpt lat="52.343627" lon="-1.701302">
<ele>128</ele>
<time>2021-06-03T02:02:38Z</time></trkpt>
<trkpt lat="52.343926" lon="-1.701371">
<ele>128</ele>
<time>2021-06-03T02:02:44Z</time></trkpt>
<trkpt lat="52.344603" lon="-1.701351">
<ele>130</ele>
<time>2021-06-03T02:02:56Z</time></trkpt>
<trkpt lat="52.344735" lon="-1.701381">
<ele>130</ele>
<time>2021-06-03T02:02:58Z</time></trkpt>
<trkpt lat="52.344887" lon="-1.701489">
<ele>130</ele>
<time>2021-06-03T02:03:01Z</time></trkpt>
<trkpt lat="52.34499" lon="-1.70167">
<ele>130</ele>
<time>2021-06-03T02:03:04Z</time></trkpt>
<trkpt lat="52.345107" lon="-1.701763">
<ele>130</ele>
<time>2021-06-03T02:03:06Z</time></trkpt>
<trkpt lat="52.345357" lon="-1.701773">
<ele>130</ele>
<time>2021-06-03T02:03:11Z</time></trkpt>
<trkpt lat="52.345965" lon="-1.701719">
<ele>130</ele>
<time>2021-06-03T02:03:21Z</time></trkpt>
<trkpt lat="52.346525" lon="-1.701756">
<ele>129</ele>
<time>2021-06-03T02:03:29Z</time></trkpt>
<trkpt lat="52.347515" lon="-1.701267">
<ele>128</ele>
<time>2021-06-03T02:03:44Z</time></trkpt>
<trkpt lat="52.348563" lon="-1.700685">
<ele>127</ele>
<time>2021-06-03T02:04:01Z</time></trkpt>
<trkpt lat="52.34903" lon="-1.700424">
<ele>125</ele>
<time>2021-06-03T02:04:10Z</time></trkpt>
<trkpt lat="52.349057" lon="-1.700332">
<ele>126</ele>
<time>2021-06-03T02:04:11Z</time></trkpt>
<trkpt lat="52.349207" lon="-1.700076">
<ele>126</ele>
<time>2021-06-03T02:04:15Z</time></trkpt>
<trkpt lat="52.349258" lon="-1.699905">
<ele>126</ele>
<time>2021-06-03T02:04:17Z</time></trkpt>
<trkpt lat="52.349249" lon="-1.699608">
<ele>128</ele>
<time>2021-06-03T02:04:20Z</time></trkpt>
<trkpt lat="52.349144" lon="-1.69849">
<ele>132</ele>
<time>2021-06-03T02:04:37Z</time></trkpt>
<trkpt lat="52.349042" lon="-1.697776">
<ele>132</ele>
<time>2021-06-03T02:04:48Z</time></trkpt>
<trkpt lat="52.348924" lon="-1.696775">
<ele>132</ele>
<time>2021-06-03T02:05:00Z</time></trkpt>
<trkpt lat="52.34893" lon="-1.696591">
<ele>132</ele>
<time>2021-06-03T02:05:01Z</time></trkpt>
<trkpt lat="52.348954" lon="-1.69643">
<ele>132</ele>
<time>2021-06-03T02:05:03Z</time></trkpt>
<trkpt lat="52.348987" lon="-1.696304">
<ele>132</ele>
<time>2021-06-03T02:05:04Z</time></trkpt>
<trkpt lat="52.349049" lon="-1.696172">
<ele>132</ele>
<time>2021-06-03T02:05:06Z</time></trkpt>
<trkpt lat="52.349163" lon="-1.695984">
<ele>132</ele>
<time>2021-06-03T02:05:09Z</time></trkpt>
<trkpt lat="52.349326" lon="-1.695851">
<ele>132</ele>
<time>2021-06-03T02:05:11Z</time></trkpt>
<trkpt lat="52.351798" lon="-1.694705">
<ele>127</ele>
<time>2021-06-03T02:05:46Z</time></trkpt>
<trkpt lat="52.351843" lon="-1.694589">
<ele>127</ele>
<time>2021-06-03T02:05:47Z</time></trkpt>
<trkpt lat="52.353627" lon="-1.695805">
<ele>124</ele>
<time>2021-06-03T02:06:14Z</time></trkpt>
<trkpt lat="52.354281" lon="-1.69636">
<ele>123</ele>
<time>2021-06-03T02:06:24Z</time></trkpt>
<trkpt lat="52.354801" lon="-1.696914">
<ele>121</ele>
<time>2021-06-03T02:06:32Z</time></trkpt>
<trkpt lat="52.355322" lon="-1.697599">
<ele>119</ele>
<time>2021-06-03T02:06:40Z</time></trkpt>
<trkpt lat="52.355471" lon="-1.697835">
<ele>118</ele>
<time>2021-06-03T02:06:42Z</time></trkpt>
<trkpt lat="52.356703" lon="-1.699965">
<ele>121</ele>
<time>2021-06-03T02:07:17Z</time></trkpt>
<trkpt lat="52.357474" lon="-1.698849">
<ele>121</ele>
<time>2021-06-03T02:07:35Z</time></trkpt>
<trkpt lat="52.357668" lon="-1.698517">
<ele>121</ele>
<time>2021-06-03T02:07:40Z</time></trkpt>
<trkpt lat="52.357788" lon="-1.69827">
<ele>121</ele>
<time>2021-06-03T02:07:44Z</time></trkpt>
<trkpt lat="52.358118" lon="-1.69687">
<ele>122</ele>
<time>2021-06-03T02:08:01Z</time></trkpt>
<trkpt lat="52.358201" lon="-1.696621">
<ele>123</ele>
<time>2021-06-03T02:08:05Z</time></trkpt>
<trkpt lat="52.359176" lon="-1.696817">
<ele>127</ele>
<time>2021-06-03T02:08:31Z</time></trkpt>
<trkpt lat="52.359596" lon="-1.697203">
<ele>126</ele>
<time>2021-06-03T02:08:39Z</time></trkpt>
<trkpt lat="52.361134" lon="-1.69891">
<ele>125</ele>
<time>2021-06-03T02:09:06Z</time></trkpt>
<trkpt lat="52.361535" lon="-1.699242">
<ele>124</ele>
<time>2021-06-03T02:09:13Z</time></trkpt>
<trkpt lat="52.36179" lon="-1.699414">
<ele>123</ele>
<time>2021-06-03T02:09:17Z</time></trkpt>
<trkpt lat="52.362117" lon="-1.699425">
<ele>123</ele>
<time>2021-06-03T02:09:21Z</time></trkpt>
<trkpt lat="52.362576" lon="-1.699275">
<ele>122</ele>
<time>2021-06-03T02:09:28Z</time></trkpt>
<trkpt lat="52.362798" lon="-1.699376">
<ele>122</ele>
<time>2021-06-03T02:09:31Z</time></trkpt>
<trkpt lat="52.363202" lon="-1.699633">
<ele>121</ele>
<time>2021-06-03T02:09:38Z</time></trkpt>
<trkpt lat="52.36409" lon="-1.699714">
<ele>122</ele>
<time>2021-06-03T02:09:52Z</time></trkpt>
<trkpt lat="52.364541" lon="-1.699661">
<ele>122</ele>
<time>2021-06-03T02:09:59Z</time></trkpt>
<trkpt lat="52.364736" lon="-1.699555">
<ele>122</ele>
<time>2021-06-03T02:10:02Z</time></trkpt>
<trkpt lat="52.364895" lon="-1.699307">
<ele>122</ele>
<time>2021-06-03T02:10:06Z</time></trkpt>
<trkpt lat="52.364959" lon="-1.699">
<ele>121</ele>
<time>2021-06-03T02:10:08Z</time></trkpt>
<trkpt lat="52.365034" lon="-1.698789">
<ele>121</ele>
<time>2021-06-03T02:10:11Z</time></trkpt>
<trkpt lat="52.365466" lon="-1.698405">
<ele>121</ele>
<time>2021-06-03T02:10:18Z</time></trkpt>
<trkpt lat="52.366212" lon="-1.698087">
<ele>119</ele>
<time>2021-06-03T02:10:29Z</time></trkpt>
<trkpt lat="52.366686" lon="-1.698061">
<ele>119</ele>
<time>2021-06-03T02:10:36Z</time></trkpt>
<trkpt lat="52.367553" lon="-1.69835">
<ele>121</ele>
<time>2021-06-03T02:10:50Z</time></trkpt>
<trkpt lat="52.367614" lon="-1.698343">
<ele>120</ele>
<time>2021-06-03T02:10:51Z</time></trkpt>
<trkpt lat="52.367937" lon="-1.698205">
<ele>118</ele>
<time>2021-06-03T02:10:56Z</time></trkpt>
<trkpt lat="52.368504" lon="-1.698128">
<ele>116</ele>
<time>2021-06-03T02:11:03Z</time></trkpt>
<trkpt lat="52.36882" lon="-1.698194">
<ele>116</ele>
<time>2021-06-03T02:11:07Z</time></trkpt>
<trkpt lat="52.36993" lon="-1.698839">
<ele>114</ele>
<time>2021-06-03T02:11:23Z</time></trkpt>
<trkpt lat="52.370824" lon="-1.699509">
<ele>112</ele>
<time>2021-06-03T02:11:37Z</time></trkpt>
<trkpt lat="52.371182" lon="-1.699836">
<ele>111</ele>
<time>2021-06-03T02:11:43Z</time></trkpt>
<trkpt lat="52.371321" lon="-1.70003">
<ele>111</ele>
<time>2021-06-03T02:11:46Z</time></trkpt>
<trkpt lat="52.372714" lon="-1.702561">
<ele>114</ele>
<time>2021-06-03T02:12:24Z</time></trkpt>
<trkpt lat="52.373185" lon="-1.702932">
<ele>116</ele>
<time>2021-06-03T02:12:35Z</time></trkpt>
<trkpt lat="52.373796" lon="-1.703273">
<ele>115</ele>
<time>2021-06-03T02:12:47Z</time></trkpt>
<trkpt lat="52.373989" lon="-1.703333">
<ele>115</ele>
<time>2021-06-03T02:12:50Z</time></trkpt>
<trkpt lat="52.374135" lon="-1.703323">
<ele>114</ele>
<time>2021-06-03T02:12:52Z</time></trkpt>
<trkpt lat="52.374209" lon="-1.703242">
<ele>114</ele>
<time>2021-06-03T02:12:53Z</time></trkpt>
<trkpt lat="52.374436" lon="-1.702896">
<ele>113</ele>
<time>2021-06-03T02:12:57Z</time></trkpt>
<trkpt lat="52.374734" lon="-1.702628">
<ele>113</ele>
<time>2021-06-03T02:13:01Z</time></trkpt>
<trkpt lat="52.374934" lon="-1.702544">
<ele>113</ele>
<time>2021-06-03T02:13:05Z</time></trkpt>
<trkpt lat="52.375422" lon="-1.702422">
<ele>113</ele>
<time>2021-06-03T02:13:12Z</time></trkpt>
<trkpt lat="52.376014" lon="-1.702056">
<ele>113</ele>
<time>2021-06-03T02:13:23Z</time></trkpt>
<trkpt lat="52.376285" lon="-1.701473">
<ele>112</ele>
<time>2021-06-03T02:13:28Z</time></trkpt>
<trkpt lat="52.376432" lon="-1.701278">
<ele>111</ele>
<time>2021-06-03T02:13:31Z</time></trkpt>
<trkpt lat="52.376598" lon="-1.701167">
<ele>111</ele>
<time>2021-06-03T02:13:33Z</time></trkpt>
<trkpt lat="52.377173" lon="-1.700936">
<ele>110</ele>
<time>2021-06-03T02:13:41Z</time></trkpt>
<trkpt lat="52.378102" lon="-1.700669">
<ele>107</ele>
<time>2021-06-03T02:13:52Z</time></trkpt>
<trkpt lat="52.378303" lon="-1.70058">
<ele>106</ele>
<time>2021-06-03T02:13:55Z</time></trkpt>
<trkpt lat="52.37841" lon="-1.700574">
<ele>106</ele>
<time>2021-06-03T02:13:56Z</time></trkpt>
<trkpt lat="52.378793" lon="-1.700675">
<ele>105</ele>
<time>2021-06-03T02:14:01Z</time></trkpt>
<trkpt lat="52.379274" lon="-1.700674">
<ele>104</ele>
<time>2021-06-03T02:14:08Z</time></trkpt>
<trkpt lat="52.379862" lon="-1.701045">
<ele>104</ele>
<time>2021-06-03T02:14:18Z</time></trkpt>
<trkpt lat="52.379972" lon="-1.701062">
<ele>104</ele>
<time>2021-06-03T02:14:20Z</time></trkpt>
<trkpt lat="52.380142" lon="-1.701043">
<ele>104</ele>
<time>2021-06-03T02:14:24Z</time></trkpt>
<trkpt lat="52.381097" lon="-1.700772">
<ele>107</ele>
<time>2021-06-03T02:14:45Z</time></trkpt>
<trkpt lat="52.381403" lon="-1.70073">
<ele>107</ele>
<time>2021-06-03T02:14:50Z</time></trkpt>
<trkpt lat="52.381467" lon="-1.700773">
<ele>107</ele>
<time>2021-06-03T02:14:51Z</time></trkpt>
<trkpt lat="52.381569" lon="-1.700634">
<ele>108</ele>
<time>2021-06-03T02:14:52Z</time></trkpt>
<trkpt lat="52.381467" lon="-1.700773">
<ele>107</ele>
<time>2021-06-03T02:14:54Z</time></trkpt>
<trkpt lat="52.381454" lon="-1.700924">
<ele>107</ele>
<time>2021-06-03T02:14:56Z</time></trkpt>
<trkpt lat="52.381876" lon="-1.703562">
<ele>103</ele>
<time>2021-06-03T02:15:20Z</time></trkpt>
<trkpt lat="52.382217" lon="-1.705139">
<ele>107</ele>
<time>2021-06-03T02:15:43Z</time></trkpt>
<trkpt lat="52.38252" lon="-1.706306">
<ele>109</ele>
<time>2021-06-03T02:16:02Z</time></trkpt>
<trkpt lat="52.382501" lon="-1.70641">
<ele>109</ele>
<time>2021-06-03T02:16:03Z</time></trkpt>
<trkpt lat="52.382464" lon="-1.706503">
<ele>109</ele>
<time>2021-06-03T02:16:04Z</time></trkpt>
<trkpt lat="52.382076" lon="-1.707264">
<ele>107</ele>
<time>2021-06-03T02:16:13Z</time></trkpt>
<trkpt lat="52.381863" lon="-1.707818">
<ele>108</ele>
<time>2021-06-03T02:16:19Z</time></trkpt>
<trkpt lat="52.381702" lon="-1.708312">
<ele>109</ele>
<time>2021-06-03T02:16:26Z</time></trkpt>
<trkpt lat="52.381463" lon="-1.70914">
<ele>110</ele>
<time>2021-06-03T02:16:37Z</time></trkpt>
<trkpt lat="52.381142" lon="-1.709938">
<ele>110</ele>
<time>2021-06-03T02:16:48Z</time></trkpt>
<trkpt lat="52.380813" lon="-1.710592">
<ele>109</ele>
<time>2021-06-03T02:16:55Z</time></trkpt>
<trkpt lat="52.380766" lon="-1.710822">
<ele>108</ele>
<time>2021-06-03T02:16:57Z</time></trkpt>
<trkpt lat="52.380772" lon="-1.711082">
<ele>108</ele>
<time>2021-06-03T02:17:00Z</time></trkpt>
<trkpt lat="52.380859" lon="-1.711537">
<ele>108</ele>
<time>2021-06-03T02:17:04Z</time></trkpt>
<trkpt lat="52.381069" lon="-1.71239">
<ele>108</ele>
<time>2021-06-03T02:17:15Z</time></trkpt>
<trkpt lat="52.381282" lon="-1.713144">
<ele>109</ele>
<time>2021-06-03T02:17:26Z</time></trkpt>
<trkpt lat="52.381474" lon="-1.713717">
<ele>111</ele>
<time>2021-06-03T02:17:35Z</time></trkpt>
<trkpt lat="52.381647" lon="-1.714086">
<ele>114</ele>
<time>2021-06-03T02:17:41Z</time></trkpt>
<trkpt lat="52.381734" lon="-1.714189">
<ele>114</ele>
<time>2021-06-03T02:17:43Z</time></trkpt>
<trkpt lat="52.381606" lon="-1.714332">
<ele>114</ele>
<time>2021-06-03T02:17:46Z</time></trkpt>
<trkpt lat="52.38038" lon="-1.714879">
<ele>111</ele>
<time>2021-06-03T02:18:07Z</time></trkpt>
<trkpt lat="52.37991" lon="-1.715035">
<ele>108</ele>
<time>2021-06-03T02:18:11Z</time></trkpt>
<trkpt lat="52.37914" lon="-1.715151">
<ele>104</ele>
<time>2021-06-03T02:18:20Z</time></trkpt>
<trkpt lat="52.378789" lon="-1.715273">
<ele>104</ele>
<time>2021-06-03T02:18:25Z</time></trkpt>
<trkpt lat="52.378134" lon="-1.71572">
<ele>104</ele>
<time>2021-06-03T02:18:35Z</time></trkpt>
<trkpt lat="52.377983" lon="-1.715785">
<ele>104</ele>
<time>2021-06-03T02:18:37Z</time></trkpt>
<trkpt lat="52.377788" lon="-1.715824">
<ele>104</ele>
<time>2021-06-03T02:18:40Z</time></trkpt>
<trkpt lat="52.376961" lon="-1.715818">
<ele>103</ele>
<time>2021-06-03T02:18:51Z</time></trkpt>
<trkpt lat="52.376601" lon="-1.715849">
<ele>102</ele>
<time>2021-06-03T02:18:57Z</time></trkpt>
<trkpt lat="52.376426" lon="-1.715899">
<ele>102</ele>
<time>2021-06-03T02:19:00Z</time></trkpt>
<trkpt lat="52.375718" lon="-1.715878">
<ele>103</ele>
<time>2021-06-03T02:19:13Z</time></trkpt>
<trkpt lat="52.375588" lon="-1.71594">
<ele>103</ele>
<time>2021-06-03T02:19:16Z</time></trkpt>
<trkpt lat="52.375417" lon="-1.716098">
<ele>103</ele>
<time>2021-06-03T02:19:19Z</time></trkpt>
<trkpt lat="52.375202" lon="-1.71636">
<ele>102</ele>
<time>2021-06-03T02:19:23Z</time></trkpt>
<trkpt lat="52.374619" lon="-1.716727">
<ele>102</ele>
<time>2021-06-03T02:19:32Z</time></trkpt>
<trkpt lat="52.374518" lon="-1.71686">
<ele>102</ele>
<time>2021-06-03T02:19:34Z</time></trkpt>
<trkpt lat="52.374076" lon="-1.717749">
<ele>103</ele>
<time>2021-06-03T02:19:45Z</time></trkpt>
<trkpt lat="52.373758" lon="-1.718451">
<ele>102</ele>
<time>2021-06-03T02:19:54Z</time></trkpt>
<trkpt lat="52.373932" lon="-1.719028">
<ele>102</ele>
<time>2021-06-03T02:20:00Z</time></trkpt>
<trkpt lat="52.374323" lon="-1.720117">
<ele>104</ele>
<time>2021-06-03T02:20:18Z</time></trkpt>
<trkpt lat="52.374432" lon="-1.720489">
<ele>104</ele>
<time>2021-06-03T02:20:23Z</time></trkpt>
<trkpt lat="52.374468" lon="-1.720723">
<ele>105</ele>
<time>2021-06-03T02:20:26Z</time></trkpt>
<trkpt lat="52.37447" lon="-1.721153">
<ele>105</ele>
<time>2021-06-03T02:20:32Z</time></trkpt>
<trkpt lat="52.374439" lon="-1.722044">
<ele>106</ele>
<time>2021-06-03T02:20:41Z</time></trkpt>
<trkpt lat="52.374466" lon="-1.722506">
<ele>106</ele>
<time>2021-06-03T02:20:47Z</time></trkpt>
<trkpt lat="52.374565" lon="-1.723005">
<ele>106</ele>
<time>2021-06-03T02:20:52Z</time></trkpt>
<trkpt lat="52.374648" lon="-1.723261">
<ele>105</ele>
<time>2021-06-03T02:20:55Z</time></trkpt>
<trkpt lat="52.374794" lon="-1.72347">
<ele>105</ele>
<time>2021-06-03T02:20:58Z</time></trkpt>
<trkpt lat="52.375915" lon="-1.724364">
<ele>104</ele>
<time>2021-06-03T02:21:16Z</time></trkpt>
<trkpt lat="52.376198" lon="-1.724616">
<ele>105</ele>
<time>2021-06-03T02:21:21Z</time></trkpt>
<trkpt lat="52.376291" lon="-1.724727">
<ele>105</ele>
<time>2021-06-03T02:21:23Z</time></trkpt>
<trkpt lat="52.376361" lon="-1.724854">
<ele>105</ele>
<time>2021-06-03T02:21:24Z</time></trkpt>
<trkpt lat="52.376445" lon="-1.725105">
<ele>105</ele>
<time>2021-06-03T02:21:27Z</time></trkpt>
<trkpt lat="52.376588" lon="-1.725926">
<ele>104</ele>
<time>2021-06-03T02:21:37Z</time></trkpt>
<trkpt lat="52.376797" lon="-1.727855">
<ele>109</ele>
<time>2021-06-03T02:22:08Z</time></trkpt>
<trkpt lat="52.376895" lon="-1.729306">
<ele>110</ele>
<time>2021-06-03T02:22:26Z</time></trkpt>
<trkpt lat="52.376915" lon="-1.729907">
<ele>110</ele>
<time>2021-06-03T02:22:33Z</time></trkpt>
<trkpt lat="52.376908" lon="-1.730404">
<ele>111</ele>
<time>2021-06-03T02:22:40Z</time></trkpt>
<trkpt lat="52.376789" lon="-1.731494">
<ele>113</ele>
<time>2021-06-03T02:22:55Z</time></trkpt>
<trkpt lat="52.376513" lon="-1.731442">
<ele>114</ele>
<time>2021-06-03T02:23:01Z</time></trkpt>
<trkpt lat="52.375961" lon="-1.731418">
<ele>115</ele>
<time>2021-06-03T02:23:11Z</time></trkpt>
<trkpt lat="52.374988" lon="-1.731836">
<ele>114</ele>
<time>2021-06-03T02:23:27Z</time></trkpt>
<trkpt lat="52.374924" lon="-1.731846">
<ele>114</ele>
<time>2021-06-03T02:23:28Z</time></trkpt>
<trkpt lat="52.374565" lon="-1.731681">
<ele>114</ele>
<time>2021-06-03T02:23:34Z</time></trkpt>
<trkpt lat="52.373773" lon="-1.731707">
<ele>113</ele>
<time>2021-06-03T02:23:46Z</time></trkpt>
<trkpt lat="52.373514" lon="-1.731765">
<ele>112</ele>
<time>2021-06-03T02:23:50Z</time></trkpt>
<trkpt lat="52.373379" lon="-1.731817">
<ele>112</ele>
<time>2021-06-03T02:23:52Z</time></trkpt>
<trkpt lat="52.373249" lon="-1.731902">
<ele>111</ele>
<time>2021-06-03T02:23:54Z</time></trkpt>
<trkpt lat="52.373129" lon="-1.73205">
<ele>111</ele>
<time>2021-06-03T02:23:56Z</time></trkpt>
<trkpt lat="52.373071" lon="-1.732173">
<ele>111</ele>
<time>2021-06-03T02:23:58Z</time></trkpt>
<trkpt lat="52.373006" lon="-1.732389">
<ele>111</ele>
<time>2021-06-03T02:24:00Z</time></trkpt>
<trkpt lat="52.372973" lon="-1.732578">
<ele>111</ele>
<time>2021-06-03T02:24:02Z</time></trkpt>
<trkpt lat="52.372912" lon="-1.733194">
<ele>112</ele>
<time>2021-06-03T02:24:07Z</time></trkpt>
<trkpt lat="52.372763" lon="-1.733926">
<ele>115</ele>
<time>2021-06-03T02:24:18Z</time></trkpt>
<trkpt lat="52.372572" lon="-1.734586">
<ele>116</ele>
<time>2021-06-03T02:24:29Z</time></trkpt>
<trkpt lat="52.372187" lon="-1.735454">
<ele>116</ele>
<time>2021-06-03T02:24:43Z</time></trkpt>
<trkpt lat="52.371963" lon="-1.735889">
<ele>116</ele>
<time>2021-06-03T02:24:48Z</time></trkpt>
<trkpt lat="52.371799" lon="-1.736118">
<ele>116</ele>
<time>2021-06-03T02:24:52Z</time></trkpt>
<trkpt lat="52.371545" lon="-1.736334">
<ele>116</ele>
<time>2021-06-03T02:24:56Z</time></trkpt>
<trkpt lat="52.370302" lon="-1.736937">
<ele>112</ele>
<time>2021-06-03T02:25:10Z</time></trkpt>
<trkpt lat="52.36983" lon="-1.737324">
<ele>109</ele>
<time>2021-06-03T02:25:17Z</time></trkpt>
<trkpt lat="52.369364" lon="-1.73781">
<ele>109</ele>
<time>2021-06-03T02:25:26Z</time></trkpt>
<trkpt lat="52.368238" lon="-1.738723">
<ele>111</ele>
<time>2021-06-03T02:25:50Z</time></trkpt>
<trkpt lat="52.36732" lon="-1.739183">
<ele>112</ele>
<time>2021-06-03T02:26:10Z</time></trkpt>
<trkpt lat="52.36638" lon="-1.739597">
<ele>114</ele>
<time>2021-06-03T02:26:27Z</time></trkpt>
<trkpt lat="52.365769" lon="-1.739911">
<ele>114</ele>
<time>2021-06-03T02:26:39Z</time></trkpt>
<trkpt lat="52.365681" lon="-1.739907">
<ele>114</ele>
<time>2021-06-03T02:26:41Z</time></trkpt>
<trkpt lat="52.365597" lon="-1.739858">
<ele>114</ele>
<time>2021-06-03T02:26:42Z</time></trkpt>
<trkpt lat="52.365463" lon="-1.739724">
<ele>114</ele>
<time>2021-06-03T02:26:45Z</time></trkpt>
<trkpt lat="52.365303" lon="-1.739514">
<ele>113</ele>
<time>2021-06-03T02:26:49Z</time></trkpt>
<trkpt lat="52.365207" lon="-1.739431">
<ele>113</ele>
<time>2021-06-03T02:26:51Z</time></trkpt>
<trkpt lat="52.365052" lon="-1.739391">
<ele>113</ele>
<time>2021-06-03T02:26:53Z</time></trkpt>
<trkpt lat="52.364969" lon="-1.739429">
<ele>114</ele>
<time>2021-06-03T02:26:55Z</time></trkpt>
<trkpt lat="52.364427" lon="-1.740013">
<ele>113</ele>
<time>2021-06-03T02:27:05Z</time></trkpt>
<trkpt lat="52.36424" lon="-1.740051">
<ele>112</ele>
<time>2021-06-03T02:27:07Z</time></trkpt>
<trkpt lat="52.363835" lon="-1.739984">
<ele>113</ele>
<time>2021-06-03T02:27:14Z</time></trkpt>
<trkpt lat="52.363628" lon="-1.739985">
<ele>113</ele>
<time>2021-06-03T02:27:17Z</time></trkpt>
<trkpt lat="52.363177" lon="-1.740059">
<ele>114</ele>
<time>2021-06-03T02:27:25Z</time></trkpt>
<trkpt lat="52.362801" lon="-1.740234">
<ele>114</ele>
<time>2021-06-03T02:27:32Z</time></trkpt>
<trkpt lat="52.362479" lon="-1.740423">
<ele>114</ele>
<time>2021-06-03T02:27:39Z</time></trkpt>
<trkpt lat="52.362181" lon="-1.740651">
<ele>114</ele>
<time>2021-06-03T02:27:44Z</time></trkpt>
<trkpt lat="52.361622" lon="-1.741114">
<ele>113</ele>
<time>2021-06-03T02:27:53Z</time></trkpt>
<trkpt lat="52.359914" lon="-1.742175">
<ele>114</ele>
<time>2021-06-03T02:28:25Z</time></trkpt>
<trkpt lat="52.359381" lon="-1.742375">
<ele>113</ele>
<time>2021-06-03T02:28:33Z</time></trkpt>
<trkpt lat="52.359062" lon="-1.742562">
<ele>113</ele>
<time>2021-06-03T02:28:39Z</time></trkpt>
<trkpt lat="52.357935" lon="-1.743554">
<ele>115</ele>
<time>2021-06-03T02:29:01Z</time></trkpt>
<trkpt lat="52.356464" lon="-1.744944">
<ele>117</ele>
<time>2021-06-03T02:29:34Z</time></trkpt>
<trkpt lat="52.356278" lon="-1.745164">
<ele>117</ele>
<time>2021-06-03T02:29:40Z</time></trkpt>
<trkpt lat="52.35634" lon="-1.746236">
<ele>119</ele>
<time>2021-06-03T02:29:55Z</time></trkpt>
<trkpt lat="52.356344" lon="-1.747161">
<ele>121</ele>
<time>2021-06-03T02:30:09Z</time></trkpt>
<trkpt lat="52.356315" lon="-1.748028">
<ele>122</ele>
<time>2021-06-03T02:30:17Z</time></trkpt>
<trkpt lat="52.356297" lon="-1.748573">
<ele>122</ele>
<time>2021-06-03T02:30:23Z</time></trkpt>
<trkpt lat="52.356254" lon="-1.748998">
<ele>122</ele>
<time>2021-06-03T02:30:27Z</time></trkpt>
<trkpt lat="52.355958" lon="-1.750902">
<ele>118</ele>
<time>2021-06-03T02:30:43Z</time></trkpt>
<trkpt lat="52.355928" lon="-1.751221">
<ele>118</ele>
<time>2021-06-03T02:30:46Z</time></trkpt>
<trkpt lat="52.355928" lon="-1.752578">
<ele>117</ele>
<time>2021-06-03T02:30:57Z</time></trkpt>
<trkpt lat="52.355877" lon="-1.752859">
<ele>117</ele>
<time>2021-06-03T02:31:00Z</time></trkpt>
<trkpt lat="52.355099" lon="-1.755291">
<ele>119</ele>
<time>2021-06-03T02:31:33Z</time></trkpt>
<trkpt lat="52.355055" lon="-1.755662">
<ele>119</ele>
<time>2021-06-03T02:31:38Z</time></trkpt>
<trkpt lat="52.355097" lon="-1.756161">
<ele>119</ele>
<time>2021-06-03T02:31:43Z</time></trkpt>
<trkpt lat="52.355186" lon="-1.756826">
<ele>119</ele>
<time>2021-06-03T02:31:51Z</time></trkpt>
<trkpt lat="52.355313" lon="-1.757316">
<ele>120</ele>
<time>2021-06-03T02:31:57Z</time></trkpt>
<trkpt lat="52.355454" lon="-1.757657">
<ele>120</ele>
<time>2021-06-03T02:32:01Z</time></trkpt>
<trkpt lat="52.355805" lon="-1.758337">
<ele>120</ele>
<time>2021-06-03T02:32:11Z</time></trkpt>
<trkpt lat="52.355894" lon="-1.75861">
<ele>120</ele>
<time>2021-06-03T02:32:14Z</time></trkpt>
<trkpt lat="52.356031" lon="-1.759219">
<ele>121</ele>
<time>2021-06-03T02:32:22Z</time></trkpt>
<trkpt lat="52.356445" lon="-1.761458">
<ele>123</ele>
<time>2021-06-03T02:32:50Z</time></trkpt>
<trkpt lat="52.356466" lon="-1.761845">
<ele>123</ele>
<time>2021-06-03T02:32:55Z</time></trkpt>
<trkpt lat="52.356343" lon="-1.763023">
<ele>125</ele>
<time>2021-06-03T02:33:11Z</time></trkpt>
<trkpt lat="52.35633" lon="-1.763245">
<ele>126</ele>
<time>2021-06-03T02:33:14Z</time></trkpt>
<trkpt lat="52.35635" lon="-1.763433">
<ele>126</ele>
<time>2021-06-03T02:33:17Z</time></trkpt>
<trkpt lat="52.356291" lon="-1.763547">
<ele>126</ele>
<time>2021-06-03T02:33:19Z</time></trkpt>
<trkpt lat="52.356192" lon="-1.764154">
<ele>127</ele>
<time>2021-06-03T02:33:28Z</time></trkpt>
<trkpt lat="52.35606" lon="-1.765247">
<ele>129</ele>
<time>2021-06-03T02:33:46Z</time></trkpt>
<trkpt lat="52.356013" lon="-1.765801">
<ele>130</ele>
<time>2021-06-03T02:33:55Z</time></trkpt>
<trkpt lat="52.355981" lon="-1.76651">
<ele>131</ele>
<time>2021-06-03T02:34:06Z</time></trkpt>
<trkpt lat="52.355941" lon="-1.768136">
<ele>136</ele>
<time>2021-06-03T02:34:32Z</time></trkpt>
<trkpt lat="52.355808" lon="-1.769937">
<ele>141</ele>
<time>2021-06-03T02:35:01Z</time></trkpt>
<trkpt lat="52.355804" lon="-1.770388">
<ele>141</ele>
<time>2021-06-03T02:35:08Z</time></trkpt>
<trkpt lat="52.355821" lon="-1.770745">
<ele>141</ele>
<time>2021-06-03T02:35:13Z</time></trkpt>
<trkpt lat="52.355838" lon="-1.772092">
<ele>143</ele>
<time>2021-06-03T02:35:31Z</time></trkpt>
<trkpt lat="52.355968" lon="-1.772889">
<ele>144</ele>
<time>2021-06-03T02:35:41Z</time></trkpt>
<trkpt lat="52.355963" lon="-1.773014">
<ele>144</ele>
<time>2021-06-03T02:35:42Z</time></trkpt>
<trkpt lat="52.35593" lon="-1.773153">
<ele>144</ele>
<time>2021-06-03T02:35:44Z</time></trkpt>
<trkpt lat="52.355511" lon="-1.77393">
<ele>144</ele>
<time>2021-06-03T02:35:54Z</time></trkpt>
<trkpt lat="52.353845" lon="-1.77719">
<ele>143</ele>
<time>2021-06-03T02:36:35Z</time></trkpt>
<trkpt lat="52.353743" lon="-1.777412">
<ele>143</ele>
<time>2021-06-03T02:36:38Z</time></trkpt>
<trkpt lat="52.353692" lon="-1.777602">
<ele>143</ele>
<time>2021-06-03T02:36:40Z</time></trkpt>
<trkpt lat="52.352408" lon="-1.777396">
<ele>144</ele>
<time>2021-06-03T02:37:03Z</time></trkpt>
<trkpt lat="52.351826" lon="-1.777364">
<ele>144</ele>
<time>2021-06-03T02:37:14Z</time></trkpt>
<trkpt lat="52.351758" lon="-1.779116">
<ele>145</ele>
<time>2021-06-03T02:37:33Z</time></trkpt>
<trkpt lat="52.351758" lon="-1.779463">
<ele>144</ele>
<time>2021-06-03T02:37:36Z</time></trkpt>
<trkpt lat="52.351813" lon="-1.779806">
<ele>144</ele>
<time>2021-06-03T02:37:38Z</time></trkpt>
<trkpt lat="52.351892" lon="-1.780055">
<ele>144</ele>
<time>2021-06-03T02:37:41Z</time></trkpt>
<trkpt lat="52.353223" lon="-1.783408">
<ele>143</ele>
<time>2021-06-03T02:38:20Z</time></trkpt>
<trkpt lat="52.353882" lon="-1.784752">
<ele>142</ele>
<time>2021-06-03T02:38:36Z</time></trkpt>
<trkpt lat="52.354852" lon="-1.786855">
<ele>142</ele>
<time>2021-06-03T02:39:01Z</time></trkpt>
<trkpt lat="52.356333" lon="-1.790446">
<ele>141</ele>
<time>2021-06-03T02:39:43Z</time></trkpt>
<trkpt lat="52.356184" lon="-1.790691">
<ele>141</ele>
<time>2021-06-03T02:39:46Z</time></trkpt>
<trkpt lat="52.355314" lon="-1.792505">
<ele>142</ele>
<time>2021-06-03T02:40:09Z</time></trkpt>
<trkpt lat="52.353678" lon="-1.795566">
<ele>141</ele>
<time>2021-06-03T02:40:51Z</time></trkpt>
<trkpt lat="52.353499" lon="-1.795788">
<ele>141</ele>
<time>2021-06-03T02:40:54Z</time></trkpt>
<trkpt lat="52.353901" lon="-1.797911">
<ele>141</ele>
<time>2021-06-03T02:41:16Z</time></trkpt>
<trkpt lat="52.354398" lon="-1.800331">
<ele>143</ele>
<time>2021-06-03T02:41:49Z</time></trkpt>
<trkpt lat="52.354532" lon="-1.801104">
<ele>145</ele>
<time>2021-06-03T02:42:01Z</time></trkpt>
<trkpt lat="52.355029" lon="-1.803552">
<ele>149</ele>
<time>2021-06-03T02:42:37Z</time></trkpt>
<trkpt lat="52.355943" lon="-1.807541">
<ele>148</ele>
<time>2021-06-03T02:43:18Z</time></trkpt>
<trkpt lat="52.356237" lon="-1.808751">
<ele>145</ele>
<time>2021-06-03T02:43:26Z</time></trkpt>
<trkpt lat="52.356497" lon="-1.809719">
<ele>144</ele>
<time>2021-06-03T02:43:36Z</time></trkpt>
<trkpt lat="52.356692" lon="-1.810238">
<ele>144</ele>
<time>2021-06-03T02:43:45Z</time></trkpt>
<trkpt lat="52.356811" lon="-1.810503">
<ele>145</ele>
<time>2021-06-03T02:43:49Z</time></trkpt>
<trkpt lat="52.35714" lon="-1.811069">
<ele>147</ele>
<time>2021-06-03T02:44:00Z</time></trkpt>
<trkpt lat="52.357602" lon="-1.81167">
<ele>148</ele>
<time>2021-06-03T02:44:11Z</time></trkpt>
<trkpt lat="52.357836" lon="-1.812059">
<ele>148</ele>
<time>2021-06-03T02:44:17Z</time></trkpt>
<trkpt lat="52.358115" lon="-1.812628">
<ele>148</ele>
<time>2021-06-03T02:44:25Z</time></trkpt>
<trkpt lat="52.358699" lon="-1.814007">
<ele>150</ele>
<time>2021-06-03T02:44:45Z</time></trkpt>
<trkpt lat="52.359243" lon="-1.815883">
<ele>149</ele>
<time>2021-06-03T02:45:04Z</time></trkpt>
<trkpt lat="52.3593" lon="-1.816174">
<ele>148</ele>
<time>2021-06-03T02:45:06Z</time></trkpt>
<trkpt lat="52.359404" lon="-1.817124">
<ele>145</ele>
<time>2021-06-03T02:45:13Z</time></trkpt>
<trkpt lat="52.359505" lon="-1.818296">
<ele>142</ele>
<time>2021-06-03T02:45:20Z</time></trkpt>
<trkpt lat="52.359648" lon="-1.819437">
<ele>142</ele>
<time>2021-06-03T02:45:36Z</time></trkpt>
<trkpt lat="52.359726" lon="-1.819743">
<ele>143</ele>
<time>2021-06-03T02:45:42Z</time></trkpt>
<trkpt lat="52.360272" lon="-1.821357">
<ele>151</ele>
<time>2021-06-03T02:46:13Z</time></trkpt>
<trkpt lat="52.360471" lon="-1.822905">
<ele>151</ele>
<time>2021-06-03T02:46:34Z</time></trkpt>
<trkpt lat="52.360768" lon="-1.824467">
<ele>153</ele>
<time>2021-06-03T02:46:49Z</time></trkpt>
<trkpt lat="52.361685" lon="-1.827247">
<ele>151</ele>
<time>2021-06-03T02:47:22Z</time></trkpt>
<trkpt lat="52.3623782" lon="-1.8282224">
<ele>150</ele>
<time>2021-06-03T02:47:36Z</time></trkpt>
<trkpt lat="52.363102" lon="-1.829241">
<ele>150</ele>
<time>2021-06-03T02:47:51Z</time></trkpt>
<trkpt lat="52.363177" lon="-1.829461">
<ele>150</ele>
<time>2021-06-03T02:47:54Z</time></trkpt>
<trkpt lat="52.363203" lon="-1.829695">
<ele>150</ele>
<time>2021-06-03T02:47:56Z</time></trkpt>
<trkpt lat="52.363325" lon="-1.829639">
<ele>149</ele>
<time>2021-06-03T02:47:58Z</time></trkpt>
<trkpt lat="52.363245" lon="-1.829431">
<ele>150</ele>
<time>2021-06-03T02:48:00Z</time></trkpt>
<trkpt lat="52.363112" lon="-1.829255">
<ele>150</ele>
<time>2021-06-03T02:48:03Z</time></trkpt>
</trkseg>
</trk>
</gpx>